<?xml version="1.0" encoding="UTF-8" standalone="no" ?>
<gpx xmlns="http://www.topografix.com/GPX/1/1" xmlns:xsi="http://www.w3.org/2001/XMLSchema-instance" xsi:schemaLocation="http://www.topografix.com/GPX/1/1 http://www.topografix.com/GPX/1/1/gpx.xsd" version="1.1" creator="VisuGPX - https://www.visugpx.com">
  <metadata>
    <name>StCass Réau Riv Mur 26K 400m 8-5-2021</name>
  </metadata>
  <trk>
    <name><![CDATA[StCas Rea Riv Mur 26K 400m 04-2021]]></name>
    <extensions>
      <line xmlns="http://www.topografix.com/GPX/gpx_style/0/2">
        <color>0000FF</color>
        <width>4</width>
      </line>
    </extensions>
    <trkseg>
      <trkpt lat="45.3602" lon="5.55166">
        <ele>388.51</ele>
        <time>2021-04-27T11:31:55Z</time>
      </trkpt>
      <trkpt lat="45.36028" lon="5.55164">
        <ele>385.15</ele>
        <time>2021-04-27T11:32:05Z</time>
      </trkpt>
      <trkpt lat="45.36028" lon="5.55165">
        <ele>380.82</ele>
        <time>2021-04-27T11:32:15Z</time>
      </trkpt>
      <trkpt lat="45.36029" lon="5.55165">
        <ele>376.49</ele>
        <time>2021-04-27T11:32:25Z</time>
      </trkpt>
      <trkpt lat="45.36029" lon="5.55165">
        <ele>373.13</ele>
        <time>2021-04-27T11:32:35Z</time>
      </trkpt>
      <trkpt lat="45.36021" lon="5.5516">
        <ele>369.76</ele>
        <time>2021-04-27T11:32:45Z</time>
      </trkpt>
      <trkpt lat="45.36012" lon="5.55192">
        <ele>368.8</ele>
        <time>2021-04-27T11:32:55Z</time>
      </trkpt>
      <trkpt lat="45.36016" lon="5.55241">
        <ele>367.36</ele>
        <time>2021-04-27T11:33:05Z</time>
      </trkpt>
      <trkpt lat="45.36024" lon="5.55296">
        <ele>366.4</ele>
        <time>2021-04-27T11:33:15Z</time>
      </trkpt>
      <trkpt lat="45.36031" lon="5.55358">
        <ele>365.44</ele>
        <time>2021-04-27T11:33:25Z</time>
      </trkpt>
      <trkpt lat="45.36043" lon="5.55424">
        <ele>364.48</ele>
        <time>2021-04-27T11:33:35Z</time>
      </trkpt>
      <trkpt lat="45.36057" lon="5.55475">
        <ele>363.52</ele>
        <time>2021-04-27T11:33:45Z</time>
      </trkpt>
      <trkpt lat="45.36063" lon="5.55528">
        <ele>363.04</ele>
        <time>2021-04-27T11:33:55Z</time>
      </trkpt>
      <trkpt lat="45.36062" lon="5.55593">
        <ele>361.59</ele>
        <time>2021-04-27T11:34:05Z</time>
      </trkpt>
      <trkpt lat="45.36034" lon="5.55658">
        <ele>360.15</ele>
        <time>2021-04-27T11:34:15Z</time>
      </trkpt>
      <trkpt lat="45.3599" lon="5.55689">
        <ele>361.11</ele>
        <time>2021-04-27T11:34:25Z</time>
      </trkpt>
      <trkpt lat="45.3595" lon="5.55715">
        <ele>362.07</ele>
        <time>2021-04-27T11:34:35Z</time>
      </trkpt>
      <trkpt lat="45.35912" lon="5.55756">
        <ele>361.11</ele>
        <time>2021-04-27T11:34:45Z</time>
      </trkpt>
      <trkpt lat="45.35882" lon="5.55807">
        <ele>360.63</ele>
        <time>2021-04-27T11:34:55Z</time>
      </trkpt>
      <trkpt lat="45.35866" lon="5.55873">
        <ele>360.63</ele>
        <time>2021-04-27T11:35:05Z</time>
      </trkpt>
      <trkpt lat="45.35841" lon="5.55928">
        <ele>360.63</ele>
        <time>2021-04-27T11:35:15Z</time>
      </trkpt>
      <trkpt lat="45.35808" lon="5.55973">
        <ele>361.59</ele>
        <time>2021-04-27T11:35:25Z</time>
      </trkpt>
      <trkpt lat="45.35785" lon="5.55965">
        <ele>360.63</ele>
        <time>2021-04-27T11:35:35Z</time>
      </trkpt>
      <trkpt lat="45.35755" lon="5.55893">
        <ele>357.27</ele>
        <time>2021-04-27T11:35:45Z</time>
      </trkpt>
      <trkpt lat="45.35708" lon="5.55798">
        <ele>348.13</ele>
        <time>2021-04-27T11:35:55Z</time>
      </trkpt>
      <trkpt lat="45.35685" lon="5.55708">
        <ele>350.06</ele>
        <time>2021-04-27T11:36:05Z</time>
      </trkpt>
      <trkpt lat="45.35661" lon="5.55678">
        <ele>351.98</ele>
        <time>2021-04-27T11:36:15Z</time>
      </trkpt>
      <trkpt lat="45.3563" lon="5.55716">
        <ele>346.21</ele>
        <time>2021-04-27T11:36:25Z</time>
      </trkpt>
      <trkpt lat="45.35597" lon="5.55787">
        <ele>342.37</ele>
        <time>2021-04-27T11:36:35Z</time>
      </trkpt>
      <trkpt lat="45.35585" lon="5.55834">
        <ele>339.48</ele>
        <time>2021-04-27T11:36:45Z</time>
      </trkpt>
      <trkpt lat="45.3556" lon="5.55869">
        <ele>337.56</ele>
        <time>2021-04-27T11:36:55Z</time>
      </trkpt>
      <trkpt lat="45.35525" lon="5.5589">
        <ele>336.6</ele>
        <time>2021-04-27T11:37:05Z</time>
      </trkpt>
      <trkpt lat="45.35479" lon="5.55925">
        <ele>334.2</ele>
        <time>2021-04-27T11:37:15Z</time>
      </trkpt>
      <trkpt lat="45.3543" lon="5.55955">
        <ele>332.75</ele>
        <time>2021-04-27T11:37:25Z</time>
      </trkpt>
      <trkpt lat="45.35379" lon="5.55967">
        <ele>331.79</ele>
        <time>2021-04-27T11:37:35Z</time>
      </trkpt>
      <trkpt lat="45.35342" lon="5.55988">
        <ele>330.83</ele>
        <time>2021-04-27T11:37:45Z</time>
      </trkpt>
      <trkpt lat="45.35309" lon="5.55959">
        <ele>329.39</ele>
        <time>2021-04-27T11:37:55Z</time>
      </trkpt>
      <trkpt lat="45.35277" lon="5.55918">
        <ele>328.43</ele>
        <time>2021-04-27T11:38:05Z</time>
      </trkpt>
      <trkpt lat="45.35239" lon="5.55864">
        <ele>327.47</ele>
        <time>2021-04-27T11:38:15Z</time>
      </trkpt>
      <trkpt lat="45.35221" lon="5.55797">
        <ele>325.06</ele>
        <time>2021-04-27T11:38:25Z</time>
      </trkpt>
      <trkpt lat="45.35184" lon="5.55743">
        <ele>324.58</ele>
        <time>2021-04-27T11:38:35Z</time>
      </trkpt>
      <trkpt lat="45.35156" lon="5.5569">
        <ele>324.1</ele>
        <time>2021-04-27T11:38:45Z</time>
      </trkpt>
      <trkpt lat="45.35114" lon="5.5565">
        <ele>323.14</ele>
        <time>2021-04-27T11:38:55Z</time>
      </trkpt>
      <trkpt lat="45.35076" lon="5.55606">
        <ele>322.66</ele>
        <time>2021-04-27T11:39:05Z</time>
      </trkpt>
      <trkpt lat="45.35037" lon="5.55566">
        <ele>322.18</ele>
        <time>2021-04-27T11:39:15Z</time>
      </trkpt>
      <trkpt lat="45.35006" lon="5.55514">
        <ele>321.22</ele>
        <time>2021-04-27T11:39:25Z</time>
      </trkpt>
      <trkpt lat="45.34991" lon="5.55452">
        <ele>320.26</ele>
        <time>2021-04-27T11:39:35Z</time>
      </trkpt>
      <trkpt lat="45.34988" lon="5.55399">
        <ele>319.78</ele>
        <time>2021-04-27T11:39:45Z</time>
      </trkpt>
      <trkpt lat="45.34993" lon="5.55389">
        <ele>319.78</ele>
        <time>2021-04-27T11:39:55Z</time>
      </trkpt>
      <trkpt lat="45.34993" lon="5.5539">
        <ele>319.78</ele>
        <time>2021-04-27T11:40:05Z</time>
      </trkpt>
      <trkpt lat="45.34993" lon="5.55389">
        <ele>319.78</ele>
        <time>2021-04-27T11:40:15Z</time>
      </trkpt>
      <trkpt lat="45.34994" lon="5.55388">
        <ele>319.78</ele>
        <time>2021-04-27T11:40:25Z</time>
      </trkpt>
      <trkpt lat="45.34996" lon="5.5539">
        <ele>319.78</ele>
        <time>2021-04-27T11:40:35Z</time>
      </trkpt>
      <trkpt lat="45.35018" lon="5.55404">
        <ele>319.3</ele>
        <time>2021-04-27T11:40:45Z</time>
      </trkpt>
      <trkpt lat="45.35045" lon="5.55418">
        <ele>319.78</ele>
        <time>2021-04-27T11:40:55Z</time>
      </trkpt>
      <trkpt lat="45.35074" lon="5.55432">
        <ele>320.74</ele>
        <time>2021-04-27T11:41:05Z</time>
      </trkpt>
      <trkpt lat="45.35103" lon="5.55435">
        <ele>321.7</ele>
        <time>2021-04-27T11:41:15Z</time>
      </trkpt>
      <trkpt lat="45.35128" lon="5.5544">
        <ele>323.62</ele>
        <time>2021-04-27T11:41:25Z</time>
      </trkpt>
      <trkpt lat="45.3515" lon="5.55447">
        <ele>325.06</ele>
        <time>2021-04-27T11:41:35Z</time>
      </trkpt>
      <trkpt lat="45.35166" lon="5.55458">
        <ele>327.47</ele>
        <time>2021-04-27T11:41:45Z</time>
      </trkpt>
      <trkpt lat="45.35183" lon="5.55466">
        <ele>329.39</ele>
        <time>2021-04-27T11:41:55Z</time>
      </trkpt>
      <trkpt lat="45.35199" lon="5.55468">
        <ele>331.31</ele>
        <time>2021-04-27T11:42:05Z</time>
      </trkpt>
      <trkpt lat="45.35225" lon="5.55469">
        <ele>332.27</ele>
        <time>2021-04-27T11:42:15Z</time>
      </trkpt>
      <trkpt lat="45.35237" lon="5.55464">
        <ele>333.23</ele>
        <time>2021-04-27T11:42:25Z</time>
      </trkpt>
      <trkpt lat="45.35244" lon="5.5545">
        <ele>334.68</ele>
        <time>2021-04-27T11:42:35Z</time>
      </trkpt>
      <trkpt lat="45.35253" lon="5.55432">
        <ele>336.12</ele>
        <time>2021-04-27T11:42:45Z</time>
      </trkpt>
      <trkpt lat="45.35261" lon="5.55411">
        <ele>337.56</ele>
        <time>2021-04-27T11:42:55Z</time>
      </trkpt>
      <trkpt lat="45.3527" lon="5.55394">
        <ele>339.48</ele>
        <time>2021-04-27T11:43:05Z</time>
      </trkpt>
      <trkpt lat="45.35278" lon="5.55379">
        <ele>340.44</ele>
        <time>2021-04-27T11:43:15Z</time>
      </trkpt>
      <trkpt lat="45.35285" lon="5.55364">
        <ele>342.37</ele>
        <time>2021-04-27T11:43:25Z</time>
      </trkpt>
      <trkpt lat="45.35293" lon="5.55346">
        <ele>344.29</ele>
        <time>2021-04-27T11:43:35Z</time>
      </trkpt>
      <trkpt lat="45.35301" lon="5.55331">
        <ele>345.73</ele>
        <time>2021-04-27T11:43:45Z</time>
      </trkpt>
      <trkpt lat="45.35309" lon="5.55316">
        <ele>347.65</ele>
        <time>2021-04-27T11:43:55Z</time>
      </trkpt>
      <trkpt lat="45.35317" lon="5.55307">
        <ele>349.58</ele>
        <time>2021-04-27T11:44:05Z</time>
      </trkpt>
      <trkpt lat="45.3533" lon="5.55302">
        <ele>351.5</ele>
        <time>2021-04-27T11:44:15Z</time>
      </trkpt>
      <trkpt lat="45.35344" lon="5.553">
        <ele>352.94</ele>
        <time>2021-04-27T11:44:25Z</time>
      </trkpt>
      <trkpt lat="45.35358" lon="5.55298">
        <ele>353.9</ele>
        <time>2021-04-27T11:44:35Z</time>
      </trkpt>
      <trkpt lat="45.35376" lon="5.55298">
        <ele>355.34</ele>
        <time>2021-04-27T11:44:45Z</time>
      </trkpt>
      <trkpt lat="45.35393" lon="5.55294">
        <ele>356.31</ele>
        <time>2021-04-27T11:44:55Z</time>
      </trkpt>
      <trkpt lat="45.35409" lon="5.55288">
        <ele>357.27</ele>
        <time>2021-04-27T11:45:05Z</time>
      </trkpt>
      <trkpt lat="45.35427" lon="5.55275">
        <ele>357.75</ele>
        <time>2021-04-27T11:45:15Z</time>
      </trkpt>
      <trkpt lat="45.35444" lon="5.5526">
        <ele>358.71</ele>
        <time>2021-04-27T11:45:25Z</time>
      </trkpt>
      <trkpt lat="45.35459" lon="5.55245">
        <ele>359.67</ele>
        <time>2021-04-27T11:45:35Z</time>
      </trkpt>
      <trkpt lat="45.35475" lon="5.55229">
        <ele>360.15</ele>
        <time>2021-04-27T11:45:45Z</time>
      </trkpt>
      <trkpt lat="45.3549" lon="5.55212">
        <ele>360.63</ele>
        <time>2021-04-27T11:45:55Z</time>
      </trkpt>
      <trkpt lat="45.35506" lon="5.55195">
        <ele>361.59</ele>
        <time>2021-04-27T11:46:05Z</time>
      </trkpt>
      <trkpt lat="45.35523" lon="5.55179">
        <ele>362.55</ele>
        <time>2021-04-27T11:46:15Z</time>
      </trkpt>
      <trkpt lat="45.35539" lon="5.55164">
        <ele>364.48</ele>
        <time>2021-04-27T11:46:25Z</time>
      </trkpt>
      <trkpt lat="45.35556" lon="5.55154">
        <ele>365.92</ele>
        <time>2021-04-27T11:46:35Z</time>
      </trkpt>
      <trkpt lat="45.35559" lon="5.55131">
        <ele>366.88</ele>
        <time>2021-04-27T11:46:45Z</time>
      </trkpt>
      <trkpt lat="45.35536" lon="5.55118">
        <ele>366.4</ele>
        <time>2021-04-27T11:46:55Z</time>
      </trkpt>
      <trkpt lat="45.35499" lon="5.55104">
        <ele>363.04</ele>
        <time>2021-04-27T11:47:05Z</time>
      </trkpt>
      <trkpt lat="45.35449" lon="5.55078">
        <ele>360.15</ele>
        <time>2021-04-27T11:47:15Z</time>
      </trkpt>
      <trkpt lat="45.35392" lon="5.55047">
        <ele>357.75</ele>
        <time>2021-04-27T11:47:25Z</time>
      </trkpt>
      <trkpt lat="45.35337" lon="5.55027">
        <ele>356.31</ele>
        <time>2021-04-27T11:47:35Z</time>
      </trkpt>
      <trkpt lat="45.3529" lon="5.55012">
        <ele>356.31</ele>
        <time>2021-04-27T11:47:45Z</time>
      </trkpt>
      <trkpt lat="45.35244" lon="5.5501">
        <ele>356.31</ele>
        <time>2021-04-27T11:47:55Z</time>
      </trkpt>
      <trkpt lat="45.35198" lon="5.55017">
        <ele>356.31</ele>
        <time>2021-04-27T11:48:05Z</time>
      </trkpt>
      <trkpt lat="45.35157" lon="5.5501">
        <ele>356.79</ele>
        <time>2021-04-27T11:48:15Z</time>
      </trkpt>
      <trkpt lat="45.35121" lon="5.54984">
        <ele>357.27</ele>
        <time>2021-04-27T11:48:25Z</time>
      </trkpt>
      <trkpt lat="45.35082" lon="5.5496">
        <ele>357.27</ele>
        <time>2021-04-27T11:48:35Z</time>
      </trkpt>
      <trkpt lat="45.35034" lon="5.54962">
        <ele>356.31</ele>
        <time>2021-04-27T11:48:45Z</time>
      </trkpt>
      <trkpt lat="45.3499" lon="5.54959">
        <ele>356.31</ele>
        <time>2021-04-27T11:48:55Z</time>
      </trkpt>
      <trkpt lat="45.3497" lon="5.54951">
        <ele>357.27</ele>
        <time>2021-04-27T11:49:05Z</time>
      </trkpt>
      <trkpt lat="45.34969" lon="5.5495">
        <ele>357.27</ele>
        <time>2021-04-27T11:49:15Z</time>
      </trkpt>
      <trkpt lat="45.34969" lon="5.5495">
        <ele>357.27</ele>
        <time>2021-04-27T11:49:25Z</time>
      </trkpt>
      <trkpt lat="45.34969" lon="5.5495">
        <ele>357.27</ele>
        <time>2021-04-27T11:49:35Z</time>
      </trkpt>
      <trkpt lat="45.34968" lon="5.5495">
        <ele>357.27</ele>
        <time>2021-04-27T11:49:45Z</time>
      </trkpt>
      <trkpt lat="45.34967" lon="5.54949">
        <ele>357.75</ele>
        <time>2021-04-27T11:49:55Z</time>
      </trkpt>
      <trkpt lat="45.34967" lon="5.54949">
        <ele>357.27</ele>
        <time>2021-04-27T11:50:05Z</time>
      </trkpt>
      <trkpt lat="45.34966" lon="5.54949">
        <ele>357.27</ele>
        <time>2021-04-27T11:50:15Z</time>
      </trkpt>
      <trkpt lat="45.34966" lon="5.54949">
        <ele>357.75</ele>
        <time>2021-04-27T11:50:25Z</time>
      </trkpt>
      <trkpt lat="45.34966" lon="5.54949">
        <ele>357.75</ele>
        <time>2021-04-27T11:50:35Z</time>
      </trkpt>
      <trkpt lat="45.34966" lon="5.54949">
        <ele>357.75</ele>
        <time>2021-04-27T11:50:45Z</time>
      </trkpt>
      <trkpt lat="45.34966" lon="5.54949">
        <ele>357.75</ele>
        <time>2021-04-27T11:50:55Z</time>
      </trkpt>
      <trkpt lat="45.34966" lon="5.54949">
        <ele>357.75</ele>
        <time>2021-04-27T11:51:05Z</time>
      </trkpt>
      <trkpt lat="45.34966" lon="5.54948">
        <ele>357.75</ele>
        <time>2021-04-27T11:51:15Z</time>
      </trkpt>
      <trkpt lat="45.34966" lon="5.54949">
        <ele>357.75</ele>
        <time>2021-04-27T11:51:25Z</time>
      </trkpt>
      <trkpt lat="45.34966" lon="5.54951">
        <ele>357.75</ele>
        <time>2021-04-27T11:51:35Z</time>
      </trkpt>
      <trkpt lat="45.34966" lon="5.54951">
        <ele>358.23</ele>
        <time>2021-04-27T11:51:45Z</time>
      </trkpt>
      <trkpt lat="45.34966" lon="5.5495">
        <ele>358.23</ele>
        <time>2021-04-27T11:51:55Z</time>
      </trkpt>
      <trkpt lat="45.34965" lon="5.5495">
        <ele>357.75</ele>
        <time>2021-04-27T11:52:05Z</time>
      </trkpt>
      <trkpt lat="45.3494" lon="5.54941">
        <ele>357.75</ele>
        <time>2021-04-27T11:52:15Z</time>
      </trkpt>
      <trkpt lat="45.34906" lon="5.54926">
        <ele>358.71</ele>
        <time>2021-04-27T11:52:25Z</time>
      </trkpt>
      <trkpt lat="45.34876" lon="5.54912">
        <ele>359.19</ele>
        <time>2021-04-27T11:52:35Z</time>
      </trkpt>
      <trkpt lat="45.34848" lon="5.54895">
        <ele>358.71</ele>
        <time>2021-04-27T11:52:45Z</time>
      </trkpt>
      <trkpt lat="45.34846" lon="5.54895">
        <ele>358.71</ele>
        <time>2021-04-27T11:52:55Z</time>
      </trkpt>
      <trkpt lat="45.34843" lon="5.54893">
        <ele>358.71</ele>
        <time>2021-04-27T11:53:05Z</time>
      </trkpt>
      <trkpt lat="45.34815" lon="5.54875">
        <ele>358.23</ele>
        <time>2021-04-27T11:53:15Z</time>
      </trkpt>
      <trkpt lat="45.34781" lon="5.54853">
        <ele>356.31</ele>
        <time>2021-04-27T11:53:25Z</time>
      </trkpt>
      <trkpt lat="45.34757" lon="5.54826">
        <ele>353.9</ele>
        <time>2021-04-27T11:53:35Z</time>
      </trkpt>
      <trkpt lat="45.34723" lon="5.54761">
        <ele>350.06</ele>
        <time>2021-04-27T11:53:45Z</time>
      </trkpt>
      <trkpt lat="45.34682" lon="5.5468">
        <ele>347.65</ele>
        <time>2021-04-27T11:53:55Z</time>
      </trkpt>
      <trkpt lat="45.3468" lon="5.54642">
        <ele>348.62</ele>
        <time>2021-04-27T11:54:05Z</time>
      </trkpt>
      <trkpt lat="45.34689" lon="5.54613">
        <ele>349.1</ele>
        <time>2021-04-27T11:54:15Z</time>
      </trkpt>
      <trkpt lat="45.34708" lon="5.54568">
        <ele>349.58</ele>
        <time>2021-04-27T11:54:25Z</time>
      </trkpt>
      <trkpt lat="45.3472" lon="5.54534">
        <ele>350.06</ele>
        <time>2021-04-27T11:54:35Z</time>
      </trkpt>
      <trkpt lat="45.34732" lon="5.54498">
        <ele>350.06</ele>
        <time>2021-04-27T11:54:45Z</time>
      </trkpt>
      <trkpt lat="45.34744" lon="5.54468">
        <ele>351.5</ele>
        <time>2021-04-27T11:54:55Z</time>
      </trkpt>
      <trkpt lat="45.34753" lon="5.54441">
        <ele>352.94</ele>
        <time>2021-04-27T11:55:05Z</time>
      </trkpt>
      <trkpt lat="45.34771" lon="5.5441">
        <ele>352.94</ele>
        <time>2021-04-27T11:55:15Z</time>
      </trkpt>
      <trkpt lat="45.34791" lon="5.54381">
        <ele>353.42</ele>
        <time>2021-04-27T11:55:25Z</time>
      </trkpt>
      <trkpt lat="45.34813" lon="5.54353">
        <ele>353.9</ele>
        <time>2021-04-27T11:55:35Z</time>
      </trkpt>
      <trkpt lat="45.34838" lon="5.54328">
        <ele>355.34</ele>
        <time>2021-04-27T11:55:45Z</time>
      </trkpt>
      <trkpt lat="45.34858" lon="5.54308">
        <ele>356.79</ele>
        <time>2021-04-27T11:55:55Z</time>
      </trkpt>
      <trkpt lat="45.34879" lon="5.54291">
        <ele>358.23</ele>
        <time>2021-04-27T11:56:05Z</time>
      </trkpt>
      <trkpt lat="45.34898" lon="5.54267">
        <ele>360.15</ele>
        <time>2021-04-27T11:56:15Z</time>
      </trkpt>
      <trkpt lat="45.34916" lon="5.54247">
        <ele>362.07</ele>
        <time>2021-04-27T11:56:25Z</time>
      </trkpt>
      <trkpt lat="45.34931" lon="5.5423">
        <ele>364</ele>
        <time>2021-04-27T11:56:35Z</time>
      </trkpt>
      <trkpt lat="45.34944" lon="5.54214">
        <ele>365.92</ele>
        <time>2021-04-27T11:56:45Z</time>
      </trkpt>
      <trkpt lat="45.34962" lon="5.54197">
        <ele>367.84</ele>
        <time>2021-04-27T11:56:55Z</time>
      </trkpt>
      <trkpt lat="45.34979" lon="5.54182">
        <ele>369.28</ele>
        <time>2021-04-27T11:57:05Z</time>
      </trkpt>
      <trkpt lat="45.34997" lon="5.54162">
        <ele>370.24</ele>
        <time>2021-04-27T11:57:15Z</time>
      </trkpt>
      <trkpt lat="45.35015" lon="5.54139">
        <ele>370.73</ele>
        <time>2021-04-27T11:57:25Z</time>
      </trkpt>
      <trkpt lat="45.35032" lon="5.54114">
        <ele>371.21</ele>
        <time>2021-04-27T11:57:35Z</time>
      </trkpt>
      <trkpt lat="45.35047" lon="5.5409">
        <ele>372.17</ele>
        <time>2021-04-27T11:57:45Z</time>
      </trkpt>
      <trkpt lat="45.35058" lon="5.54062">
        <ele>373.13</ele>
        <time>2021-04-27T11:57:55Z</time>
      </trkpt>
      <trkpt lat="45.35073" lon="5.54036">
        <ele>374.57</ele>
        <time>2021-04-27T11:58:05Z</time>
      </trkpt>
      <trkpt lat="45.35089" lon="5.54024">
        <ele>376.49</ele>
        <time>2021-04-27T11:58:15Z</time>
      </trkpt>
      <trkpt lat="45.35104" lon="5.54008">
        <ele>378.42</ele>
        <time>2021-04-27T11:58:25Z</time>
      </trkpt>
      <trkpt lat="45.35113" lon="5.53986">
        <ele>379.38</ele>
        <time>2021-04-27T11:58:35Z</time>
      </trkpt>
      <trkpt lat="45.35126" lon="5.53957">
        <ele>379.38</ele>
        <time>2021-04-27T11:58:45Z</time>
      </trkpt>
      <trkpt lat="45.35129" lon="5.53916">
        <ele>378.42</ele>
        <time>2021-04-27T11:58:55Z</time>
      </trkpt>
      <trkpt lat="45.35138" lon="5.5387">
        <ele>378.42</ele>
        <time>2021-04-27T11:59:05Z</time>
      </trkpt>
      <trkpt lat="45.35155" lon="5.53832">
        <ele>378.9</ele>
        <time>2021-04-27T11:59:15Z</time>
      </trkpt>
      <trkpt lat="45.35175" lon="5.538">
        <ele>380.34</ele>
        <time>2021-04-27T11:59:25Z</time>
      </trkpt>
      <trkpt lat="45.35196" lon="5.53777">
        <ele>382.26</ele>
        <time>2021-04-27T11:59:35Z</time>
      </trkpt>
      <trkpt lat="45.35213" lon="5.53758">
        <ele>384.18</ele>
        <time>2021-04-27T11:59:45Z</time>
      </trkpt>
      <trkpt lat="45.35223" lon="5.5374">
        <ele>386.11</ele>
        <time>2021-04-27T11:59:55Z</time>
      </trkpt>
      <trkpt lat="45.35235" lon="5.53729">
        <ele>387.55</ele>
        <time>2021-04-27T12:00:05Z</time>
      </trkpt>
      <trkpt lat="45.35256" lon="5.53758">
        <ele>387.07</ele>
        <time>2021-04-27T12:00:15Z</time>
      </trkpt>
      <trkpt lat="45.35278" lon="5.53798">
        <ele>386.59</ele>
        <time>2021-04-27T12:00:25Z</time>
      </trkpt>
      <trkpt lat="45.35308" lon="5.53816">
        <ele>386.11</ele>
        <time>2021-04-27T12:00:35Z</time>
      </trkpt>
      <trkpt lat="45.35328" lon="5.53773">
        <ele>386.59</ele>
        <time>2021-04-27T12:00:45Z</time>
      </trkpt>
      <trkpt lat="45.35344" lon="5.53738">
        <ele>387.07</ele>
        <time>2021-04-27T12:00:55Z</time>
      </trkpt>
      <trkpt lat="45.35362" lon="5.53751">
        <ele>389.47</ele>
        <time>2021-04-27T12:01:05Z</time>
      </trkpt>
      <trkpt lat="45.35372" lon="5.53784">
        <ele>390.91</ele>
        <time>2021-04-27T12:01:15Z</time>
      </trkpt>
      <trkpt lat="45.354" lon="5.53804">
        <ele>390.43</ele>
        <time>2021-04-27T12:01:25Z</time>
      </trkpt>
      <trkpt lat="45.35423" lon="5.53828">
        <ele>391.39</ele>
        <time>2021-04-27T12:01:35Z</time>
      </trkpt>
      <trkpt lat="45.35442" lon="5.53853">
        <ele>392.36</ele>
        <time>2021-04-27T12:01:45Z</time>
      </trkpt>
      <trkpt lat="45.35462" lon="5.53878">
        <ele>392.84</ele>
        <time>2021-04-27T12:01:55Z</time>
      </trkpt>
      <trkpt lat="45.35483" lon="5.53904">
        <ele>393.32</ele>
        <time>2021-04-27T12:02:05Z</time>
      </trkpt>
      <trkpt lat="45.35504" lon="5.53929">
        <ele>393.8</ele>
        <time>2021-04-27T12:02:15Z</time>
      </trkpt>
      <trkpt lat="45.35525" lon="5.5394">
        <ele>395.24</ele>
        <time>2021-04-27T12:02:25Z</time>
      </trkpt>
      <trkpt lat="45.35544" lon="5.53913">
        <ele>395.24</ele>
        <time>2021-04-27T12:02:35Z</time>
      </trkpt>
      <trkpt lat="45.3555" lon="5.53881">
        <ele>396.68</ele>
        <time>2021-04-27T12:02:45Z</time>
      </trkpt>
      <trkpt lat="45.35541" lon="5.5385">
        <ele>397.64</ele>
        <time>2021-04-27T12:02:55Z</time>
      </trkpt>
      <trkpt lat="45.35531" lon="5.53816">
        <ele>398.6</ele>
        <time>2021-04-27T12:03:05Z</time>
      </trkpt>
      <trkpt lat="45.3553" lon="5.53785">
        <ele>399.57</ele>
        <time>2021-04-27T12:03:15Z</time>
      </trkpt>
      <trkpt lat="45.35557" lon="5.53769">
        <ele>399.57</ele>
        <time>2021-04-27T12:03:25Z</time>
      </trkpt>
      <trkpt lat="45.35571" lon="5.53738">
        <ele>401.01</ele>
        <time>2021-04-27T12:03:35Z</time>
      </trkpt>
      <trkpt lat="45.35582" lon="5.53746">
        <ele>401.49</ele>
        <time>2021-04-27T12:03:45Z</time>
      </trkpt>
      <trkpt lat="45.35598" lon="5.53771">
        <ele>402.45</ele>
        <time>2021-04-27T12:03:55Z</time>
      </trkpt>
      <trkpt lat="45.35614" lon="5.53793">
        <ele>402.93</ele>
        <time>2021-04-27T12:04:05Z</time>
      </trkpt>
      <trkpt lat="45.35631" lon="5.53769">
        <ele>401.97</ele>
        <time>2021-04-27T12:04:15Z</time>
      </trkpt>
      <trkpt lat="45.35648" lon="5.53768">
        <ele>402.93</ele>
        <time>2021-04-27T12:04:25Z</time>
      </trkpt>
      <trkpt lat="45.35664" lon="5.53791">
        <ele>403.41</ele>
        <time>2021-04-27T12:04:35Z</time>
      </trkpt>
      <trkpt lat="45.35687" lon="5.53826">
        <ele>404.37</ele>
        <time>2021-04-27T12:04:45Z</time>
      </trkpt>
      <trkpt lat="45.35709" lon="5.53857">
        <ele>404.85</ele>
        <time>2021-04-27T12:04:55Z</time>
      </trkpt>
      <trkpt lat="45.35731" lon="5.53871">
        <ele>405.33</ele>
        <time>2021-04-27T12:05:05Z</time>
      </trkpt>
      <trkpt lat="45.35757" lon="5.53865">
        <ele>406.29</ele>
        <time>2021-04-27T12:05:15Z</time>
      </trkpt>
      <trkpt lat="45.35777" lon="5.53848">
        <ele>408.22</ele>
        <time>2021-04-27T12:05:25Z</time>
      </trkpt>
      <trkpt lat="45.35791" lon="5.53834">
        <ele>410.62</ele>
        <time>2021-04-27T12:05:35Z</time>
      </trkpt>
      <trkpt lat="45.35809" lon="5.53824">
        <ele>413.5</ele>
        <time>2021-04-27T12:05:45Z</time>
      </trkpt>
      <trkpt lat="45.35825" lon="5.5383">
        <ele>414.95</ele>
        <time>2021-04-27T12:05:55Z</time>
      </trkpt>
      <trkpt lat="45.35837" lon="5.53843">
        <ele>415.91</ele>
        <time>2021-04-27T12:06:05Z</time>
      </trkpt>
      <trkpt lat="45.3585" lon="5.53853">
        <ele>417.83</ele>
        <time>2021-04-27T12:06:15Z</time>
      </trkpt>
      <trkpt lat="45.35865" lon="5.53862">
        <ele>418.79</ele>
        <time>2021-04-27T12:06:25Z</time>
      </trkpt>
      <trkpt lat="45.35884" lon="5.53873">
        <ele>419.75</ele>
        <time>2021-04-27T12:06:35Z</time>
      </trkpt>
      <trkpt lat="45.35904" lon="5.53879">
        <ele>418.79</ele>
        <time>2021-04-27T12:06:45Z</time>
      </trkpt>
      <trkpt lat="45.35927" lon="5.53874">
        <ele>418.79</ele>
        <time>2021-04-27T12:06:55Z</time>
      </trkpt>
      <trkpt lat="45.3595" lon="5.53852">
        <ele>419.27</ele>
        <time>2021-04-27T12:07:05Z</time>
      </trkpt>
      <trkpt lat="45.35962" lon="5.53809">
        <ele>420.23</ele>
        <time>2021-04-27T12:07:15Z</time>
      </trkpt>
      <trkpt lat="45.35965" lon="5.53761">
        <ele>420.71</ele>
        <time>2021-04-27T12:07:25Z</time>
      </trkpt>
      <trkpt lat="45.35972" lon="5.53703">
        <ele>419.27</ele>
        <time>2021-04-27T12:07:35Z</time>
      </trkpt>
      <trkpt lat="45.35987" lon="5.53642">
        <ele>419.27</ele>
        <time>2021-04-27T12:07:45Z</time>
      </trkpt>
      <trkpt lat="45.36013" lon="5.53594">
        <ele>417.83</ele>
        <time>2021-04-27T12:07:55Z</time>
      </trkpt>
      <trkpt lat="45.36018" lon="5.53561">
        <ele>417.35</ele>
        <time>2021-04-27T12:08:05Z</time>
      </trkpt>
      <trkpt lat="45.35991" lon="5.53525">
        <ele>417.35</ele>
        <time>2021-04-27T12:08:15Z</time>
      </trkpt>
      <trkpt lat="45.3597" lon="5.53487">
        <ele>416.87</ele>
        <time>2021-04-27T12:08:25Z</time>
      </trkpt>
      <trkpt lat="45.35963" lon="5.53433">
        <ele>415.91</ele>
        <time>2021-04-27T12:08:35Z</time>
      </trkpt>
      <trkpt lat="45.35958" lon="5.53374">
        <ele>415.91</ele>
        <time>2021-04-27T12:08:45Z</time>
      </trkpt>
      <trkpt lat="45.35952" lon="5.53319">
        <ele>416.87</ele>
        <time>2021-04-27T12:08:55Z</time>
      </trkpt>
      <trkpt lat="45.3595" lon="5.53274">
        <ele>418.31</ele>
        <time>2021-04-27T12:09:05Z</time>
      </trkpt>
      <trkpt lat="45.35948" lon="5.53226">
        <ele>419.75</ele>
        <time>2021-04-27T12:09:15Z</time>
      </trkpt>
      <trkpt lat="45.35948" lon="5.53179">
        <ele>420.23</ele>
        <time>2021-04-27T12:09:25Z</time>
      </trkpt>
      <trkpt lat="45.35949" lon="5.53128">
        <ele>420.71</ele>
        <time>2021-04-27T12:09:35Z</time>
      </trkpt>
      <trkpt lat="45.35951" lon="5.53094">
        <ele>420.71</ele>
        <time>2021-04-27T12:09:45Z</time>
      </trkpt>
      <trkpt lat="45.35948" lon="5.53068">
        <ele>419.75</ele>
        <time>2021-04-27T12:09:55Z</time>
      </trkpt>
      <trkpt lat="45.35953" lon="5.5304">
        <ele>419.27</ele>
        <time>2021-04-27T12:10:05Z</time>
      </trkpt>
      <trkpt lat="45.35961" lon="5.53002">
        <ele>419.27</ele>
        <time>2021-04-27T12:10:15Z</time>
      </trkpt>
      <trkpt lat="45.35965" lon="5.52944">
        <ele>414.95</ele>
        <time>2021-04-27T12:10:25Z</time>
      </trkpt>
      <trkpt lat="45.3597" lon="5.52872">
        <ele>409.66</ele>
        <time>2021-04-27T12:10:35Z</time>
      </trkpt>
      <trkpt lat="45.3598" lon="5.52781">
        <ele>405.33</ele>
        <time>2021-04-27T12:10:45Z</time>
      </trkpt>
      <trkpt lat="45.35989" lon="5.52696">
        <ele>404.85</ele>
        <time>2021-04-27T12:10:55Z</time>
      </trkpt>
      <trkpt lat="45.36002" lon="5.52619">
        <ele>403.89</ele>
        <time>2021-04-27T12:11:05Z</time>
      </trkpt>
      <trkpt lat="45.36012" lon="5.52546">
        <ele>400.53</ele>
        <time>2021-04-27T12:11:15Z</time>
      </trkpt>
      <trkpt lat="45.36026" lon="5.52514">
        <ele>395.24</ele>
        <time>2021-04-27T12:11:25Z</time>
      </trkpt>
      <trkpt lat="45.36025" lon="5.52471">
        <ele>387.07</ele>
        <time>2021-04-27T12:11:35Z</time>
      </trkpt>
      <trkpt lat="45.36046" lon="5.52431">
        <ele>380.34</ele>
        <time>2021-04-27T12:11:45Z</time>
      </trkpt>
      <trkpt lat="45.36052" lon="5.52362">
        <ele>371.69</ele>
        <time>2021-04-27T12:11:55Z</time>
      </trkpt>
      <trkpt lat="45.36082" lon="5.52269">
        <ele>366.88</ele>
        <time>2021-04-27T12:12:05Z</time>
      </trkpt>
      <trkpt lat="45.36106" lon="5.52196">
        <ele>366.88</ele>
        <time>2021-04-27T12:12:15Z</time>
      </trkpt>
      <trkpt lat="45.36148" lon="5.52141">
        <ele>364</ele>
        <time>2021-04-27T12:12:25Z</time>
      </trkpt>
      <trkpt lat="45.36176" lon="5.52107">
        <ele>363.52</ele>
        <time>2021-04-27T12:12:35Z</time>
      </trkpt>
      <trkpt lat="45.36206" lon="5.5208">
        <ele>364.48</ele>
        <time>2021-04-27T12:12:45Z</time>
      </trkpt>
      <trkpt lat="45.36227" lon="5.52057">
        <ele>363.04</ele>
        <time>2021-04-27T12:12:55Z</time>
      </trkpt>
      <trkpt lat="45.36268" lon="5.52025">
        <ele>359.19</ele>
        <time>2021-04-27T12:13:05Z</time>
      </trkpt>
      <trkpt lat="45.36308" lon="5.52014">
        <ele>358.71</ele>
        <time>2021-04-27T12:13:15Z</time>
      </trkpt>
      <trkpt lat="45.36346" lon="5.52004">
        <ele>358.23</ele>
        <time>2021-04-27T12:13:25Z</time>
      </trkpt>
      <trkpt lat="45.36376" lon="5.51998">
        <ele>357.75</ele>
        <time>2021-04-27T12:13:35Z</time>
      </trkpt>
      <trkpt lat="45.36403" lon="5.51963">
        <ele>355.34</ele>
        <time>2021-04-27T12:13:45Z</time>
      </trkpt>
      <trkpt lat="45.3638" lon="5.51947">
        <ele>350.54</ele>
        <time>2021-04-27T12:13:55Z</time>
      </trkpt>
      <trkpt lat="45.36339" lon="5.51919">
        <ele>345.73</ele>
        <time>2021-04-27T12:14:05Z</time>
      </trkpt>
      <trkpt lat="45.36314" lon="5.51891">
        <ele>344.29</ele>
        <time>2021-04-27T12:14:15Z</time>
      </trkpt>
      <trkpt lat="45.36267" lon="5.51869">
        <ele>342.85</ele>
        <time>2021-04-27T12:14:25Z</time>
      </trkpt>
      <trkpt lat="45.3622" lon="5.5186">
        <ele>342.37</ele>
        <time>2021-04-27T12:14:35Z</time>
      </trkpt>
      <trkpt lat="45.36169" lon="5.5185">
        <ele>341.89</ele>
        <time>2021-04-27T12:14:45Z</time>
      </trkpt>
      <trkpt lat="45.3612" lon="5.51842">
        <ele>342.37</ele>
        <time>2021-04-27T12:14:55Z</time>
      </trkpt>
      <trkpt lat="45.36074" lon="5.51833">
        <ele>342.85</ele>
        <time>2021-04-27T12:15:05Z</time>
      </trkpt>
      <trkpt lat="45.36034" lon="5.51825">
        <ele>343.81</ele>
        <time>2021-04-27T12:15:15Z</time>
      </trkpt>
      <trkpt lat="45.35996" lon="5.51817">
        <ele>344.77</ele>
        <time>2021-04-27T12:15:25Z</time>
      </trkpt>
      <trkpt lat="45.35959" lon="5.51811">
        <ele>345.73</ele>
        <time>2021-04-27T12:15:35Z</time>
      </trkpt>
      <trkpt lat="45.35923" lon="5.51802">
        <ele>346.21</ele>
        <time>2021-04-27T12:15:45Z</time>
      </trkpt>
      <trkpt lat="45.35889" lon="5.5179">
        <ele>346.21</ele>
        <time>2021-04-27T12:15:55Z</time>
      </trkpt>
      <trkpt lat="45.35857" lon="5.51777">
        <ele>346.69</ele>
        <time>2021-04-27T12:16:05Z</time>
      </trkpt>
      <trkpt lat="45.35846" lon="5.51771">
        <ele>348.13</ele>
        <time>2021-04-27T12:16:15Z</time>
      </trkpt>
      <trkpt lat="45.35865" lon="5.51757">
        <ele>349.1</ele>
        <time>2021-04-27T12:16:25Z</time>
      </trkpt>
      <trkpt lat="45.35882" lon="5.51732">
        <ele>350.06</ele>
        <time>2021-04-27T12:16:35Z</time>
      </trkpt>
      <trkpt lat="45.35899" lon="5.51709">
        <ele>351.5</ele>
        <time>2021-04-27T12:16:45Z</time>
      </trkpt>
      <trkpt lat="45.35917" lon="5.51688">
        <ele>352.94</ele>
        <time>2021-04-27T12:16:55Z</time>
      </trkpt>
      <trkpt lat="45.35938" lon="5.51673">
        <ele>355.83</ele>
        <time>2021-04-27T12:17:05Z</time>
      </trkpt>
      <trkpt lat="45.35953" lon="5.51658">
        <ele>358.71</ele>
        <time>2021-04-27T12:17:15Z</time>
      </trkpt>
      <trkpt lat="45.35967" lon="5.51639">
        <ele>361.11</ele>
        <time>2021-04-27T12:17:25Z</time>
      </trkpt>
      <trkpt lat="45.35977" lon="5.51622">
        <ele>363.04</ele>
        <time>2021-04-27T12:17:35Z</time>
      </trkpt>
      <trkpt lat="45.35989" lon="5.51607">
        <ele>364.48</ele>
        <time>2021-04-27T12:17:45Z</time>
      </trkpt>
      <trkpt lat="45.36002" lon="5.51592">
        <ele>365.92</ele>
        <time>2021-04-27T12:17:55Z</time>
      </trkpt>
      <trkpt lat="45.36012" lon="5.5158">
        <ele>367.84</ele>
        <time>2021-04-27T12:18:05Z</time>
      </trkpt>
      <trkpt lat="45.36023" lon="5.51566">
        <ele>369.76</ele>
        <time>2021-04-27T12:18:15Z</time>
      </trkpt>
      <trkpt lat="45.36033" lon="5.5155">
        <ele>372.65</ele>
        <time>2021-04-27T12:18:25Z</time>
      </trkpt>
      <trkpt lat="45.36045" lon="5.51535">
        <ele>375.53</ele>
        <time>2021-04-27T12:18:35Z</time>
      </trkpt>
      <trkpt lat="45.36057" lon="5.51523">
        <ele>378.42</ele>
        <time>2021-04-27T12:18:45Z</time>
      </trkpt>
      <trkpt lat="45.36065" lon="5.51508">
        <ele>380.34</ele>
        <time>2021-04-27T12:18:55Z</time>
      </trkpt>
      <trkpt lat="45.36074" lon="5.51495">
        <ele>382.26</ele>
        <time>2021-04-27T12:19:05Z</time>
      </trkpt>
      <trkpt lat="45.36085" lon="5.51479">
        <ele>383.22</ele>
        <time>2021-04-27T12:19:15Z</time>
      </trkpt>
      <trkpt lat="45.36098" lon="5.51463">
        <ele>383.7</ele>
        <time>2021-04-27T12:19:25Z</time>
      </trkpt>
      <trkpt lat="45.36111" lon="5.51447">
        <ele>385.15</ele>
        <time>2021-04-27T12:19:35Z</time>
      </trkpt>
      <trkpt lat="45.36123" lon="5.51431">
        <ele>386.11</ele>
        <time>2021-04-27T12:19:45Z</time>
      </trkpt>
      <trkpt lat="45.36138" lon="5.51416">
        <ele>387.07</ele>
        <time>2021-04-27T12:19:55Z</time>
      </trkpt>
      <trkpt lat="45.36151" lon="5.51399">
        <ele>388.03</ele>
        <time>2021-04-27T12:20:05Z</time>
      </trkpt>
      <trkpt lat="45.36164" lon="5.51383">
        <ele>388.99</ele>
        <time>2021-04-27T12:20:15Z</time>
      </trkpt>
      <trkpt lat="45.36178" lon="5.51367">
        <ele>390.43</ele>
        <time>2021-04-27T12:20:25Z</time>
      </trkpt>
      <trkpt lat="45.36191" lon="5.51351">
        <ele>392.36</ele>
        <time>2021-04-27T12:20:35Z</time>
      </trkpt>
      <trkpt lat="45.362" lon="5.51332">
        <ele>393.32</ele>
        <time>2021-04-27T12:20:45Z</time>
      </trkpt>
      <trkpt lat="45.36212" lon="5.51315">
        <ele>393.8</ele>
        <time>2021-04-27T12:20:55Z</time>
      </trkpt>
      <trkpt lat="45.36202" lon="5.513">
        <ele>394.28</ele>
        <time>2021-04-27T12:21:05Z</time>
      </trkpt>
      <trkpt lat="45.36186" lon="5.51308">
        <ele>396.68</ele>
        <time>2021-04-27T12:21:15Z</time>
      </trkpt>
      <trkpt lat="45.36171" lon="5.51309">
        <ele>398.6</ele>
        <time>2021-04-27T12:21:25Z</time>
      </trkpt>
      <trkpt lat="45.36155" lon="5.51309">
        <ele>400.05</ele>
        <time>2021-04-27T12:21:35Z</time>
      </trkpt>
      <trkpt lat="45.36136" lon="5.51312">
        <ele>401.01</ele>
        <time>2021-04-27T12:21:45Z</time>
      </trkpt>
      <trkpt lat="45.36117" lon="5.51299">
        <ele>401.49</ele>
        <time>2021-04-27T12:21:55Z</time>
      </trkpt>
      <trkpt lat="45.36099" lon="5.51281">
        <ele>401.97</ele>
        <time>2021-04-27T12:22:05Z</time>
      </trkpt>
      <trkpt lat="45.36088" lon="5.51265">
        <ele>402.45</ele>
        <time>2021-04-27T12:22:15Z</time>
      </trkpt>
      <trkpt lat="45.36089" lon="5.51264">
        <ele>402.45</ele>
        <time>2021-04-27T12:22:25Z</time>
      </trkpt>
      <trkpt lat="45.36089" lon="5.51265">
        <ele>401.97</ele>
        <time>2021-04-27T12:22:35Z</time>
      </trkpt>
      <trkpt lat="45.36089" lon="5.51265">
        <ele>402.45</ele>
        <time>2021-04-27T12:22:45Z</time>
      </trkpt>
      <trkpt lat="45.36089" lon="5.51265">
        <ele>402.45</ele>
        <time>2021-04-27T12:22:55Z</time>
      </trkpt>
      <trkpt lat="45.36089" lon="5.51265">
        <ele>402.45</ele>
        <time>2021-04-27T12:23:05Z</time>
      </trkpt>
      <trkpt lat="45.36088" lon="5.51264">
        <ele>402.45</ele>
        <time>2021-04-27T12:23:15Z</time>
      </trkpt>
      <trkpt lat="45.36088" lon="5.51263">
        <ele>402.45</ele>
        <time>2021-04-27T12:23:25Z</time>
      </trkpt>
      <trkpt lat="45.36088" lon="5.51262">
        <ele>402.45</ele>
        <time>2021-04-27T12:23:35Z</time>
      </trkpt>
      <trkpt lat="45.36088" lon="5.51262">
        <ele>402.45</ele>
        <time>2021-04-27T12:23:45Z</time>
      </trkpt>
      <trkpt lat="45.36088" lon="5.51262">
        <ele>402.45</ele>
        <time>2021-04-27T12:23:55Z</time>
      </trkpt>
      <trkpt lat="45.36088" lon="5.51262">
        <ele>402.45</ele>
        <time>2021-04-27T12:24:05Z</time>
      </trkpt>
      <trkpt lat="45.36087" lon="5.51261">
        <ele>401.97</ele>
        <time>2021-04-27T12:24:15Z</time>
      </trkpt>
      <trkpt lat="45.3607" lon="5.51239">
        <ele>401.49</ele>
        <time>2021-04-27T12:24:25Z</time>
      </trkpt>
      <trkpt lat="45.36053" lon="5.51215">
        <ele>401.97</ele>
        <time>2021-04-27T12:24:35Z</time>
      </trkpt>
      <trkpt lat="45.36036" lon="5.51188">
        <ele>402.45</ele>
        <time>2021-04-27T12:24:45Z</time>
      </trkpt>
      <trkpt lat="45.36019" lon="5.51162">
        <ele>402.93</ele>
        <time>2021-04-27T12:24:55Z</time>
      </trkpt>
      <trkpt lat="45.36002" lon="5.51134">
        <ele>402.93</ele>
        <time>2021-04-27T12:25:05Z</time>
      </trkpt>
      <trkpt lat="45.35984" lon="5.51108">
        <ele>402.93</ele>
        <time>2021-04-27T12:25:15Z</time>
      </trkpt>
      <trkpt lat="45.35968" lon="5.51081">
        <ele>402.93</ele>
        <time>2021-04-27T12:25:25Z</time>
      </trkpt>
      <trkpt lat="45.35962" lon="5.51072">
        <ele>401.49</ele>
        <time>2021-04-27T12:25:35Z</time>
      </trkpt>
      <trkpt lat="45.35944" lon="5.5108">
        <ele>397.16</ele>
        <time>2021-04-27T12:25:45Z</time>
      </trkpt>
      <trkpt lat="45.35929" lon="5.51063">
        <ele>391.39</ele>
        <time>2021-04-27T12:25:55Z</time>
      </trkpt>
      <trkpt lat="45.35936" lon="5.51052">
        <ele>388.51</ele>
        <time>2021-04-27T12:26:05Z</time>
      </trkpt>
      <trkpt lat="45.3596" lon="5.51021">
        <ele>387.07</ele>
        <time>2021-04-27T12:26:15Z</time>
      </trkpt>
      <trkpt lat="45.35998" lon="5.51004">
        <ele>385.63</ele>
        <time>2021-04-27T12:26:25Z</time>
      </trkpt>
      <trkpt lat="45.36032" lon="5.50973">
        <ele>383.22</ele>
        <time>2021-04-27T12:26:35Z</time>
      </trkpt>
      <trkpt lat="45.36057" lon="5.50904">
        <ele>379.86</ele>
        <time>2021-04-27T12:26:45Z</time>
      </trkpt>
      <trkpt lat="45.36073" lon="5.50868">
        <ele>383.7</ele>
        <time>2021-04-27T12:26:55Z</time>
      </trkpt>
      <trkpt lat="45.3608" lon="5.50841">
        <ele>386.59</ele>
        <time>2021-04-27T12:27:05Z</time>
      </trkpt>
      <trkpt lat="45.36078" lon="5.50808">
        <ele>385.63</ele>
        <time>2021-04-27T12:27:15Z</time>
      </trkpt>
      <trkpt lat="45.36086" lon="5.5076">
        <ele>383.22</ele>
        <time>2021-04-27T12:27:25Z</time>
      </trkpt>
      <trkpt lat="45.36085" lon="5.50694">
        <ele>378.42</ele>
        <time>2021-04-27T12:27:35Z</time>
      </trkpt>
      <trkpt lat="45.36061" lon="5.50632">
        <ele>371.69</ele>
        <time>2021-04-27T12:27:45Z</time>
      </trkpt>
      <trkpt lat="45.3604" lon="5.50578">
        <ele>365.92</ele>
        <time>2021-04-27T12:27:55Z</time>
      </trkpt>
      <trkpt lat="45.35987" lon="5.5051">
        <ele>358.71</ele>
        <time>2021-04-27T12:28:05Z</time>
      </trkpt>
      <trkpt lat="45.35992" lon="5.50454">
        <ele>359.67</ele>
        <time>2021-04-27T12:28:15Z</time>
      </trkpt>
      <trkpt lat="45.35995" lon="5.50425">
        <ele>357.75</ele>
        <time>2021-04-27T12:28:25Z</time>
      </trkpt>
      <trkpt lat="45.35981" lon="5.50413">
        <ele>352.46</ele>
        <time>2021-04-27T12:28:35Z</time>
      </trkpt>
      <trkpt lat="45.35983" lon="5.50386">
        <ele>351.98</ele>
        <time>2021-04-27T12:28:45Z</time>
      </trkpt>
      <trkpt lat="45.35986" lon="5.50355">
        <ele>351.98</ele>
        <time>2021-04-27T12:28:55Z</time>
      </trkpt>
      <trkpt lat="45.35991" lon="5.5034">
        <ele>352.46</ele>
        <time>2021-04-27T12:29:05Z</time>
      </trkpt>
      <trkpt lat="45.3599" lon="5.50338">
        <ele>352.46</ele>
        <time>2021-04-27T12:29:15Z</time>
      </trkpt>
      <trkpt lat="45.35989" lon="5.50336">
        <ele>352.94</ele>
        <time>2021-04-27T12:29:25Z</time>
      </trkpt>
      <trkpt lat="45.35989" lon="5.50335">
        <ele>352.94</ele>
        <time>2021-04-27T12:29:35Z</time>
      </trkpt>
      <trkpt lat="45.35989" lon="5.50336">
        <ele>352.94</ele>
        <time>2021-04-27T12:29:45Z</time>
      </trkpt>
      <trkpt lat="45.35989" lon="5.50336">
        <ele>352.94</ele>
        <time>2021-04-27T12:29:55Z</time>
      </trkpt>
      <trkpt lat="45.35987" lon="5.50336">
        <ele>352.94</ele>
        <time>2021-04-27T12:30:05Z</time>
      </trkpt>
      <trkpt lat="45.35987" lon="5.50336">
        <ele>352.94</ele>
        <time>2021-04-27T12:30:15Z</time>
      </trkpt>
      <trkpt lat="45.35988" lon="5.50338">
        <ele>352.94</ele>
        <time>2021-04-27T12:30:25Z</time>
      </trkpt>
      <trkpt lat="45.35988" lon="5.50338">
        <ele>352.94</ele>
        <time>2021-04-27T12:30:35Z</time>
      </trkpt>
      <trkpt lat="45.35988" lon="5.50337">
        <ele>352.94</ele>
        <time>2021-04-27T12:30:45Z</time>
      </trkpt>
      <trkpt lat="45.36" lon="5.50318">
        <ele>352.46</ele>
        <time>2021-04-27T12:30:55Z</time>
      </trkpt>
      <trkpt lat="45.36014" lon="5.50308">
        <ele>352.94</ele>
        <time>2021-04-27T12:31:05Z</time>
      </trkpt>
      <trkpt lat="45.36036" lon="5.50295">
        <ele>353.42</ele>
        <time>2021-04-27T12:31:15Z</time>
      </trkpt>
      <trkpt lat="45.36058" lon="5.50305">
        <ele>353.42</ele>
        <time>2021-04-27T12:31:25Z</time>
      </trkpt>
      <trkpt lat="45.36081" lon="5.50312">
        <ele>354.38</ele>
        <time>2021-04-27T12:31:35Z</time>
      </trkpt>
      <trkpt lat="45.36113" lon="5.50306">
        <ele>355.83</ele>
        <time>2021-04-27T12:31:45Z</time>
      </trkpt>
      <trkpt lat="45.36142" lon="5.50301">
        <ele>356.31</ele>
        <time>2021-04-27T12:31:55Z</time>
      </trkpt>
      <trkpt lat="45.3617" lon="5.5029">
        <ele>356.79</ele>
        <time>2021-04-27T12:32:05Z</time>
      </trkpt>
      <trkpt lat="45.36198" lon="5.50274">
        <ele>357.27</ele>
        <time>2021-04-27T12:32:15Z</time>
      </trkpt>
      <trkpt lat="45.36223" lon="5.50247">
        <ele>357.27</ele>
        <time>2021-04-27T12:32:25Z</time>
      </trkpt>
      <trkpt lat="45.36239" lon="5.50197">
        <ele>354.38</ele>
        <time>2021-04-27T12:32:35Z</time>
      </trkpt>
      <trkpt lat="45.36235" lon="5.50133">
        <ele>355.34</ele>
        <time>2021-04-27T12:32:45Z</time>
      </trkpt>
      <trkpt lat="45.36217" lon="5.50091">
        <ele>356.79</ele>
        <time>2021-04-27T12:32:55Z</time>
      </trkpt>
      <trkpt lat="45.36197" lon="5.50066">
        <ele>356.31</ele>
        <time>2021-04-27T12:33:05Z</time>
      </trkpt>
      <trkpt lat="45.36179" lon="5.50061">
        <ele>355.83</ele>
        <time>2021-04-27T12:33:15Z</time>
      </trkpt>
      <trkpt lat="45.36177" lon="5.50062">
        <ele>356.79</ele>
        <time>2021-04-27T12:33:25Z</time>
      </trkpt>
      <trkpt lat="45.36174" lon="5.50061">
        <ele>356.79</ele>
        <time>2021-04-27T12:33:35Z</time>
      </trkpt>
      <trkpt lat="45.36172" lon="5.50062">
        <ele>357.27</ele>
        <time>2021-04-27T12:33:45Z</time>
      </trkpt>
      <trkpt lat="45.3617" lon="5.50066">
        <ele>358.71</ele>
        <time>2021-04-27T12:33:55Z</time>
      </trkpt>
      <trkpt lat="45.3617" lon="5.50072">
        <ele>360.15</ele>
        <time>2021-04-27T12:34:05Z</time>
      </trkpt>
      <trkpt lat="45.3617" lon="5.50078">
        <ele>359.19</ele>
        <time>2021-04-27T12:34:15Z</time>
      </trkpt>
      <trkpt lat="45.36184" lon="5.501">
        <ele>359.19</ele>
        <time>2021-04-27T12:34:25Z</time>
      </trkpt>
      <trkpt lat="45.36193" lon="5.5012">
        <ele>359.19</ele>
        <time>2021-04-27T12:34:35Z</time>
      </trkpt>
      <trkpt lat="45.36197" lon="5.50145">
        <ele>359.19</ele>
        <time>2021-04-27T12:34:45Z</time>
      </trkpt>
      <trkpt lat="45.36189" lon="5.50179">
        <ele>359.19</ele>
        <time>2021-04-27T12:34:55Z</time>
      </trkpt>
      <trkpt lat="45.36184" lon="5.50202">
        <ele>359.19</ele>
        <time>2021-04-27T12:35:05Z</time>
      </trkpt>
      <trkpt lat="45.36163" lon="5.50209">
        <ele>359.19</ele>
        <time>2021-04-27T12:35:15Z</time>
      </trkpt>
      <trkpt lat="45.36138" lon="5.50212">
        <ele>359.19</ele>
        <time>2021-04-27T12:35:25Z</time>
      </trkpt>
      <trkpt lat="45.36108" lon="5.50212">
        <ele>360.15</ele>
        <time>2021-04-27T12:35:35Z</time>
      </trkpt>
      <trkpt lat="45.36088" lon="5.50215">
        <ele>360.15</ele>
        <time>2021-04-27T12:35:45Z</time>
      </trkpt>
      <trkpt lat="45.36073" lon="5.50218">
        <ele>360.15</ele>
        <time>2021-04-27T12:35:55Z</time>
      </trkpt>
      <trkpt lat="45.36061" lon="5.50219">
        <ele>360.63</ele>
        <time>2021-04-27T12:36:05Z</time>
      </trkpt>
      <trkpt lat="45.36057" lon="5.50219">
        <ele>360.63</ele>
        <time>2021-04-27T12:36:15Z</time>
      </trkpt>
      <trkpt lat="45.36038" lon="5.50221">
        <ele>360.63</ele>
        <time>2021-04-27T12:36:25Z</time>
      </trkpt>
      <trkpt lat="45.3601" lon="5.50226">
        <ele>360.15</ele>
        <time>2021-04-27T12:36:35Z</time>
      </trkpt>
      <trkpt lat="45.35984" lon="5.50227">
        <ele>360.63</ele>
        <time>2021-04-27T12:36:45Z</time>
      </trkpt>
      <trkpt lat="45.35956" lon="5.50237">
        <ele>360.63</ele>
        <time>2021-04-27T12:36:55Z</time>
      </trkpt>
      <trkpt lat="45.35933" lon="5.50268">
        <ele>360.63</ele>
        <time>2021-04-27T12:37:05Z</time>
      </trkpt>
      <trkpt lat="45.3592" lon="5.50299">
        <ele>360.63</ele>
        <time>2021-04-27T12:37:15Z</time>
      </trkpt>
      <trkpt lat="45.35905" lon="5.50337">
        <ele>360.63</ele>
        <time>2021-04-27T12:37:25Z</time>
      </trkpt>
      <trkpt lat="45.359" lon="5.50365">
        <ele>361.11</ele>
        <time>2021-04-27T12:37:35Z</time>
      </trkpt>
      <trkpt lat="45.35896" lon="5.50381">
        <ele>361.11</ele>
        <time>2021-04-27T12:37:45Z</time>
      </trkpt>
      <trkpt lat="45.3589" lon="5.50393">
        <ele>362.55</ele>
        <time>2021-04-27T12:37:55Z</time>
      </trkpt>
      <trkpt lat="45.35888" lon="5.50395">
        <ele>363.04</ele>
        <time>2021-04-27T12:38:05Z</time>
      </trkpt>
      <trkpt lat="45.35887" lon="5.50399">
        <ele>364</ele>
        <time>2021-04-27T12:38:15Z</time>
      </trkpt>
      <trkpt lat="45.35878" lon="5.50416">
        <ele>366.88</ele>
        <time>2021-04-27T12:38:25Z</time>
      </trkpt>
      <trkpt lat="45.35871" lon="5.50434">
        <ele>369.28</ele>
        <time>2021-04-27T12:38:35Z</time>
      </trkpt>
      <trkpt lat="45.35865" lon="5.50448">
        <ele>371.69</ele>
        <time>2021-04-27T12:38:45Z</time>
      </trkpt>
      <trkpt lat="45.35859" lon="5.50471">
        <ele>374.09</ele>
        <time>2021-04-27T12:38:55Z</time>
      </trkpt>
      <trkpt lat="45.35855" lon="5.5049">
        <ele>376.49</ele>
        <time>2021-04-27T12:39:05Z</time>
      </trkpt>
      <trkpt lat="45.3585" lon="5.50504">
        <ele>378.9</ele>
        <time>2021-04-27T12:39:15Z</time>
      </trkpt>
      <trkpt lat="45.35849" lon="5.50518">
        <ele>381.3</ele>
        <time>2021-04-27T12:39:25Z</time>
      </trkpt>
      <trkpt lat="45.35846" lon="5.50534">
        <ele>383.7</ele>
        <time>2021-04-27T12:39:35Z</time>
      </trkpt>
      <trkpt lat="45.35842" lon="5.50533">
        <ele>385.15</ele>
        <time>2021-04-27T12:39:45Z</time>
      </trkpt>
      <trkpt lat="45.35842" lon="5.50521">
        <ele>386.59</ele>
        <time>2021-04-27T12:39:55Z</time>
      </trkpt>
      <trkpt lat="45.35839" lon="5.50506">
        <ele>388.51</ele>
        <time>2021-04-27T12:40:05Z</time>
      </trkpt>
      <trkpt lat="45.35836" lon="5.50491">
        <ele>389.47</ele>
        <time>2021-04-27T12:40:15Z</time>
      </trkpt>
      <trkpt lat="45.35835" lon="5.5048">
        <ele>390.91</ele>
        <time>2021-04-27T12:40:25Z</time>
      </trkpt>
      <trkpt lat="45.35831" lon="5.50464">
        <ele>392.36</ele>
        <time>2021-04-27T12:40:35Z</time>
      </trkpt>
      <trkpt lat="45.35829" lon="5.50444">
        <ele>393.8</ele>
        <time>2021-04-27T12:40:45Z</time>
      </trkpt>
      <trkpt lat="45.35825" lon="5.50422">
        <ele>395.24</ele>
        <time>2021-04-27T12:40:55Z</time>
      </trkpt>
      <trkpt lat="45.35825" lon="5.50411">
        <ele>396.2</ele>
        <time>2021-04-27T12:41:05Z</time>
      </trkpt>
      <trkpt lat="45.35825" lon="5.5039">
        <ele>395.72</ele>
        <time>2021-04-27T12:41:15Z</time>
      </trkpt>
      <trkpt lat="45.35827" lon="5.50364">
        <ele>393.32</ele>
        <time>2021-04-27T12:41:25Z</time>
      </trkpt>
      <trkpt lat="45.35841" lon="5.50323">
        <ele>394.76</ele>
        <time>2021-04-27T12:41:35Z</time>
      </trkpt>
      <trkpt lat="45.35841" lon="5.50298">
        <ele>396.68</ele>
        <time>2021-04-27T12:41:45Z</time>
      </trkpt>
      <trkpt lat="45.35846" lon="5.50283">
        <ele>396.68</ele>
        <time>2021-04-27T12:41:55Z</time>
      </trkpt>
      <trkpt lat="45.35846" lon="5.50282">
        <ele>396.68</ele>
        <time>2021-04-27T12:42:05Z</time>
      </trkpt>
      <trkpt lat="45.35846" lon="5.50281">
        <ele>396.68</ele>
        <time>2021-04-27T12:42:15Z</time>
      </trkpt>
      <trkpt lat="45.35846" lon="5.50281">
        <ele>396.68</ele>
        <time>2021-04-27T12:42:25Z</time>
      </trkpt>
      <trkpt lat="45.35846" lon="5.50278">
        <ele>396.68</ele>
        <time>2021-04-27T12:42:35Z</time>
      </trkpt>
      <trkpt lat="45.35846" lon="5.50278">
        <ele>396.68</ele>
        <time>2021-04-27T12:42:45Z</time>
      </trkpt>
      <trkpt lat="45.35847" lon="5.50278">
        <ele>396.68</ele>
        <time>2021-04-27T12:42:55Z</time>
      </trkpt>
      <trkpt lat="45.35847" lon="5.50278">
        <ele>397.16</ele>
        <time>2021-04-27T12:43:05Z</time>
      </trkpt>
      <trkpt lat="45.35847" lon="5.50278">
        <ele>396.68</ele>
        <time>2021-04-27T12:43:15Z</time>
      </trkpt>
      <trkpt lat="45.35847" lon="5.50278">
        <ele>397.16</ele>
        <time>2021-04-27T12:43:25Z</time>
      </trkpt>
      <trkpt lat="45.35847" lon="5.50278">
        <ele>396.68</ele>
        <time>2021-04-27T12:43:35Z</time>
      </trkpt>
      <trkpt lat="45.35847" lon="5.50278">
        <ele>396.68</ele>
        <time>2021-04-27T12:43:45Z</time>
      </trkpt>
      <trkpt lat="45.35846" lon="5.50277">
        <ele>397.16</ele>
        <time>2021-04-27T12:43:55Z</time>
      </trkpt>
      <trkpt lat="45.35846" lon="5.50276">
        <ele>397.16</ele>
        <time>2021-04-27T12:44:05Z</time>
      </trkpt>
      <trkpt lat="45.35847" lon="5.50276">
        <ele>397.16</ele>
        <time>2021-04-27T12:44:15Z</time>
      </trkpt>
      <trkpt lat="45.35847" lon="5.50276">
        <ele>396.68</ele>
        <time>2021-04-27T12:44:25Z</time>
      </trkpt>
      <trkpt lat="45.35847" lon="5.50276">
        <ele>397.16</ele>
        <time>2021-04-27T12:44:35Z</time>
      </trkpt>
      <trkpt lat="45.35847" lon="5.50276">
        <ele>397.16</ele>
        <time>2021-04-27T12:44:45Z</time>
      </trkpt>
      <trkpt lat="45.35847" lon="5.50276">
        <ele>397.16</ele>
        <time>2021-04-27T12:44:55Z</time>
      </trkpt>
      <trkpt lat="45.35848" lon="5.50272">
        <ele>396.68</ele>
        <time>2021-04-27T12:45:05Z</time>
      </trkpt>
      <trkpt lat="45.35861" lon="5.50248">
        <ele>395.72</ele>
        <time>2021-04-27T12:45:15Z</time>
      </trkpt>
      <trkpt lat="45.35882" lon="5.50223">
        <ele>394.76</ele>
        <time>2021-04-27T12:45:25Z</time>
      </trkpt>
      <trkpt lat="45.359" lon="5.50204">
        <ele>395.72</ele>
        <time>2021-04-27T12:45:35Z</time>
      </trkpt>
      <trkpt lat="45.3592" lon="5.50176">
        <ele>396.68</ele>
        <time>2021-04-27T12:45:45Z</time>
      </trkpt>
      <trkpt lat="45.35942" lon="5.5016">
        <ele>397.16</ele>
        <time>2021-04-27T12:45:55Z</time>
      </trkpt>
      <trkpt lat="45.35964" lon="5.50157">
        <ele>397.16</ele>
        <time>2021-04-27T12:46:05Z</time>
      </trkpt>
      <trkpt lat="45.35986" lon="5.50143">
        <ele>398.6</ele>
        <time>2021-04-27T12:46:15Z</time>
      </trkpt>
      <trkpt lat="45.36001" lon="5.50129">
        <ele>401.49</ele>
        <time>2021-04-27T12:46:25Z</time>
      </trkpt>
      <trkpt lat="45.36004" lon="5.50124">
        <ele>402.93</ele>
        <time>2021-04-27T12:46:35Z</time>
      </trkpt>
      <trkpt lat="45.36008" lon="5.50121">
        <ele>404.85</ele>
        <time>2021-04-27T12:46:45Z</time>
      </trkpt>
      <trkpt lat="45.36012" lon="5.50118">
        <ele>405.81</ele>
        <time>2021-04-27T12:46:55Z</time>
      </trkpt>
      <trkpt lat="45.36019" lon="5.50109">
        <ele>406.77</ele>
        <time>2021-04-27T12:47:05Z</time>
      </trkpt>
      <trkpt lat="45.36026" lon="5.50103">
        <ele>406.77</ele>
        <time>2021-04-27T12:47:15Z</time>
      </trkpt>
      <trkpt lat="45.36027" lon="5.50102">
        <ele>407.26</ele>
        <time>2021-04-27T12:47:25Z</time>
      </trkpt>
      <trkpt lat="45.36027" lon="5.50102">
        <ele>406.77</ele>
        <time>2021-04-27T12:47:35Z</time>
      </trkpt>
      <trkpt lat="45.36027" lon="5.50102">
        <ele>406.77</ele>
        <time>2021-04-27T12:47:45Z</time>
      </trkpt>
      <trkpt lat="45.36027" lon="5.50103">
        <ele>406.77</ele>
        <time>2021-04-27T12:47:55Z</time>
      </trkpt>
      <trkpt lat="45.36027" lon="5.50103">
        <ele>406.77</ele>
        <time>2021-04-27T12:48:05Z</time>
      </trkpt>
      <trkpt lat="45.36027" lon="5.50103">
        <ele>406.77</ele>
        <time>2021-04-27T12:48:15Z</time>
      </trkpt>
      <trkpt lat="45.36039" lon="5.50107">
        <ele>406.77</ele>
        <time>2021-04-27T12:48:25Z</time>
      </trkpt>
      <trkpt lat="45.36056" lon="5.50106">
        <ele>406.77</ele>
        <time>2021-04-27T12:48:35Z</time>
      </trkpt>
      <trkpt lat="45.36068" lon="5.50103">
        <ele>406.77</ele>
        <time>2021-04-27T12:48:45Z</time>
      </trkpt>
      <trkpt lat="45.36073" lon="5.50098">
        <ele>405.33</ele>
        <time>2021-04-27T12:48:55Z</time>
      </trkpt>
      <trkpt lat="45.36069" lon="5.50081">
        <ele>405.81</ele>
        <time>2021-04-27T12:49:05Z</time>
      </trkpt>
      <trkpt lat="45.36062" lon="5.50054">
        <ele>402.93</ele>
        <time>2021-04-27T12:49:15Z</time>
      </trkpt>
      <trkpt lat="45.36056" lon="5.50038">
        <ele>402.93</ele>
        <time>2021-04-27T12:49:25Z</time>
      </trkpt>
      <trkpt lat="45.36051" lon="5.49999">
        <ele>400.05</ele>
        <time>2021-04-27T12:49:35Z</time>
      </trkpt>
      <trkpt lat="45.3604" lon="5.49979">
        <ele>401.01</ele>
        <time>2021-04-27T12:49:45Z</time>
      </trkpt>
      <trkpt lat="45.36028" lon="5.49954">
        <ele>401.97</ele>
        <time>2021-04-27T12:49:55Z</time>
      </trkpt>
      <trkpt lat="45.36018" lon="5.49943">
        <ele>405.33</ele>
        <time>2021-04-27T12:50:05Z</time>
      </trkpt>
      <trkpt lat="45.36012" lon="5.49933">
        <ele>407.74</ele>
        <time>2021-04-27T12:50:15Z</time>
      </trkpt>
      <trkpt lat="45.36013" lon="5.49931">
        <ele>407.26</ele>
        <time>2021-04-27T12:50:25Z</time>
      </trkpt>
      <trkpt lat="45.36012" lon="5.4993">
        <ele>407.26</ele>
        <time>2021-04-27T12:50:35Z</time>
      </trkpt>
      <trkpt lat="45.36012" lon="5.4993">
        <ele>407.74</ele>
        <time>2021-04-27T12:50:45Z</time>
      </trkpt>
      <trkpt lat="45.36013" lon="5.49929">
        <ele>407.74</ele>
        <time>2021-04-27T12:50:55Z</time>
      </trkpt>
      <trkpt lat="45.36013" lon="5.49928">
        <ele>407.26</ele>
        <time>2021-04-27T12:51:05Z</time>
      </trkpt>
      <trkpt lat="45.36013" lon="5.49923">
        <ele>405.81</ele>
        <time>2021-04-27T12:51:15Z</time>
      </trkpt>
      <trkpt lat="45.36013" lon="5.4992">
        <ele>404.85</ele>
        <time>2021-04-27T12:51:25Z</time>
      </trkpt>
      <trkpt lat="45.36015" lon="5.49912">
        <ele>401.97</ele>
        <time>2021-04-27T12:51:35Z</time>
      </trkpt>
      <trkpt lat="45.36021" lon="5.49884">
        <ele>395.24</ele>
        <time>2021-04-27T12:51:45Z</time>
      </trkpt>
      <trkpt lat="45.36026" lon="5.49855">
        <ele>395.72</ele>
        <time>2021-04-27T12:51:55Z</time>
      </trkpt>
      <trkpt lat="45.3604" lon="5.49826">
        <ele>391.87</ele>
        <time>2021-04-27T12:52:05Z</time>
      </trkpt>
      <trkpt lat="45.36044" lon="5.49791">
        <ele>392.84</ele>
        <time>2021-04-27T12:52:15Z</time>
      </trkpt>
      <trkpt lat="45.36058" lon="5.49773">
        <ele>389.47</ele>
        <time>2021-04-27T12:52:25Z</time>
      </trkpt>
      <trkpt lat="45.3609" lon="5.4972">
        <ele>385.15</ele>
        <time>2021-04-27T12:52:35Z</time>
      </trkpt>
      <trkpt lat="45.36116" lon="5.49671">
        <ele>381.3</ele>
        <time>2021-04-27T12:52:45Z</time>
      </trkpt>
      <trkpt lat="45.36156" lon="5.49632">
        <ele>376.49</ele>
        <time>2021-04-27T12:52:55Z</time>
      </trkpt>
      <trkpt lat="45.36203" lon="5.49574">
        <ele>374.57</ele>
        <time>2021-04-27T12:53:05Z</time>
      </trkpt>
      <trkpt lat="45.3626" lon="5.49516">
        <ele>369.28</ele>
        <time>2021-04-27T12:53:15Z</time>
      </trkpt>
      <trkpt lat="45.36329" lon="5.49522">
        <ele>367.36</ele>
        <time>2021-04-27T12:53:25Z</time>
      </trkpt>
      <trkpt lat="45.36379" lon="5.49568">
        <ele>366.88</ele>
        <time>2021-04-27T12:53:35Z</time>
      </trkpt>
      <trkpt lat="45.3641" lon="5.49596">
        <ele>367.36</ele>
        <time>2021-04-27T12:53:45Z</time>
      </trkpt>
      <trkpt lat="45.36429" lon="5.49626">
        <ele>368.32</ele>
        <time>2021-04-27T12:53:55Z</time>
      </trkpt>
      <trkpt lat="45.36447" lon="5.49657">
        <ele>368.8</ele>
        <time>2021-04-27T12:54:05Z</time>
      </trkpt>
      <trkpt lat="45.36465" lon="5.49688">
        <ele>368.8</ele>
        <time>2021-04-27T12:54:15Z</time>
      </trkpt>
      <trkpt lat="45.36486" lon="5.49719">
        <ele>369.28</ele>
        <time>2021-04-27T12:54:25Z</time>
      </trkpt>
      <trkpt lat="45.36509" lon="5.4974">
        <ele>369.28</ele>
        <time>2021-04-27T12:54:35Z</time>
      </trkpt>
      <trkpt lat="45.36534" lon="5.4975">
        <ele>367.84</ele>
        <time>2021-04-27T12:54:45Z</time>
      </trkpt>
      <trkpt lat="45.36565" lon="5.49744">
        <ele>368.32</ele>
        <time>2021-04-27T12:54:55Z</time>
      </trkpt>
      <trkpt lat="45.36592" lon="5.49734">
        <ele>369.28</ele>
        <time>2021-04-27T12:55:05Z</time>
      </trkpt>
      <trkpt lat="45.36613" lon="5.49718">
        <ele>371.69</ele>
        <time>2021-04-27T12:55:15Z</time>
      </trkpt>
      <trkpt lat="45.36634" lon="5.49709">
        <ele>372.17</ele>
        <time>2021-04-27T12:55:25Z</time>
      </trkpt>
      <trkpt lat="45.36666" lon="5.49692">
        <ele>371.69</ele>
        <time>2021-04-27T12:55:35Z</time>
      </trkpt>
      <trkpt lat="45.36699" lon="5.49681">
        <ele>371.21</ele>
        <time>2021-04-27T12:55:45Z</time>
      </trkpt>
      <trkpt lat="45.3673" lon="5.4966">
        <ele>371.69</ele>
        <time>2021-04-27T12:55:55Z</time>
      </trkpt>
      <trkpt lat="45.3676" lon="5.49634">
        <ele>371.69</ele>
        <time>2021-04-27T12:56:05Z</time>
      </trkpt>
      <trkpt lat="45.36789" lon="5.49622">
        <ele>371.69</ele>
        <time>2021-04-27T12:56:15Z</time>
      </trkpt>
      <trkpt lat="45.36821" lon="5.49613">
        <ele>372.17</ele>
        <time>2021-04-27T12:56:25Z</time>
      </trkpt>
      <trkpt lat="45.36857" lon="5.49595">
        <ele>372.17</ele>
        <time>2021-04-27T12:56:35Z</time>
      </trkpt>
      <trkpt lat="45.36881" lon="5.49563">
        <ele>374.57</ele>
        <time>2021-04-27T12:56:45Z</time>
      </trkpt>
      <trkpt lat="45.36899" lon="5.49542">
        <ele>375.53</ele>
        <time>2021-04-27T12:56:55Z</time>
      </trkpt>
      <trkpt lat="45.36917" lon="5.49557">
        <ele>374.09</ele>
        <time>2021-04-27T12:57:05Z</time>
      </trkpt>
      <trkpt lat="45.36929" lon="5.49608">
        <ele>373.13</ele>
        <time>2021-04-27T12:57:15Z</time>
      </trkpt>
      <trkpt lat="45.36954" lon="5.49604">
        <ele>373.61</ele>
        <time>2021-04-27T12:57:25Z</time>
      </trkpt>
      <trkpt lat="45.36983" lon="5.49606">
        <ele>374.09</ele>
        <time>2021-04-27T12:57:35Z</time>
      </trkpt>
      <trkpt lat="45.37007" lon="5.49581">
        <ele>374.09</ele>
        <time>2021-04-27T12:57:45Z</time>
      </trkpt>
      <trkpt lat="45.37022" lon="5.49554">
        <ele>373.61</ele>
        <time>2021-04-27T12:57:55Z</time>
      </trkpt>
      <trkpt lat="45.37044" lon="5.49543">
        <ele>373.61</ele>
        <time>2021-04-27T12:58:05Z</time>
      </trkpt>
      <trkpt lat="45.37068" lon="5.49528">
        <ele>373.13</ele>
        <time>2021-04-27T12:58:15Z</time>
      </trkpt>
      <trkpt lat="45.37091" lon="5.49513">
        <ele>376.49</ele>
        <time>2021-04-27T12:58:25Z</time>
      </trkpt>
      <trkpt lat="45.37097" lon="5.4951">
        <ele>376.49</ele>
        <time>2021-04-27T12:58:35Z</time>
      </trkpt>
      <trkpt lat="45.37097" lon="5.4951">
        <ele>376.49</ele>
        <time>2021-04-27T12:58:45Z</time>
      </trkpt>
      <trkpt lat="45.37098" lon="5.4951">
        <ele>376.49</ele>
        <time>2021-04-27T12:58:55Z</time>
      </trkpt>
      <trkpt lat="45.37099" lon="5.49511">
        <ele>376.49</ele>
        <time>2021-04-27T12:59:05Z</time>
      </trkpt>
      <trkpt lat="45.37099" lon="5.4951">
        <ele>376.49</ele>
        <time>2021-04-27T12:59:15Z</time>
      </trkpt>
      <trkpt lat="45.37101" lon="5.4951">
        <ele>376.49</ele>
        <time>2021-04-27T12:59:25Z</time>
      </trkpt>
      <trkpt lat="45.37107" lon="5.49513">
        <ele>376.49</ele>
        <time>2021-04-27T12:59:35Z</time>
      </trkpt>
      <trkpt lat="45.37124" lon="5.49518">
        <ele>376.01</ele>
        <time>2021-04-27T12:59:45Z</time>
      </trkpt>
      <trkpt lat="45.37143" lon="5.49512">
        <ele>376.01</ele>
        <time>2021-04-27T12:59:55Z</time>
      </trkpt>
      <trkpt lat="45.37167" lon="5.49491">
        <ele>376.49</ele>
        <time>2021-04-27T13:00:05Z</time>
      </trkpt>
      <trkpt lat="45.37186" lon="5.49464">
        <ele>376.49</ele>
        <time>2021-04-27T13:00:15Z</time>
      </trkpt>
      <trkpt lat="45.37204" lon="5.49433">
        <ele>376.49</ele>
        <time>2021-04-27T13:00:25Z</time>
      </trkpt>
      <trkpt lat="45.37221" lon="5.49401">
        <ele>376.49</ele>
        <time>2021-04-27T13:00:35Z</time>
      </trkpt>
      <trkpt lat="45.37243" lon="5.49368">
        <ele>376.97</ele>
        <time>2021-04-27T13:00:45Z</time>
      </trkpt>
      <trkpt lat="45.37259" lon="5.49335">
        <ele>377.45</ele>
        <time>2021-04-27T13:00:55Z</time>
      </trkpt>
      <trkpt lat="45.37263" lon="5.49299">
        <ele>376.97</ele>
        <time>2021-04-27T13:01:05Z</time>
      </trkpt>
      <trkpt lat="45.37256" lon="5.49263">
        <ele>378.42</ele>
        <time>2021-04-27T13:01:15Z</time>
      </trkpt>
      <trkpt lat="45.37256" lon="5.49226">
        <ele>378.42</ele>
        <time>2021-04-27T13:01:25Z</time>
      </trkpt>
      <trkpt lat="45.37262" lon="5.49187">
        <ele>378.42</ele>
        <time>2021-04-27T13:01:35Z</time>
      </trkpt>
      <trkpt lat="45.37261" lon="5.49145">
        <ele>378.9</ele>
        <time>2021-04-27T13:01:45Z</time>
      </trkpt>
      <trkpt lat="45.3726" lon="5.49107">
        <ele>379.86</ele>
        <time>2021-04-27T13:01:55Z</time>
      </trkpt>
      <trkpt lat="45.37255" lon="5.49076">
        <ele>380.34</ele>
        <time>2021-04-27T13:02:05Z</time>
      </trkpt>
      <trkpt lat="45.37255" lon="5.49038">
        <ele>381.3</ele>
        <time>2021-04-27T13:02:15Z</time>
      </trkpt>
      <trkpt lat="45.37258" lon="5.49002">
        <ele>382.74</ele>
        <time>2021-04-27T13:02:25Z</time>
      </trkpt>
      <trkpt lat="45.37268" lon="5.48974">
        <ele>384.18</ele>
        <time>2021-04-27T13:02:35Z</time>
      </trkpt>
      <trkpt lat="45.37279" lon="5.4896">
        <ele>385.63</ele>
        <time>2021-04-27T13:02:45Z</time>
      </trkpt>
      <trkpt lat="45.37294" lon="5.48945">
        <ele>386.11</ele>
        <time>2021-04-27T13:02:55Z</time>
      </trkpt>
      <trkpt lat="45.37311" lon="5.48934">
        <ele>386.11</ele>
        <time>2021-04-27T13:03:05Z</time>
      </trkpt>
      <trkpt lat="45.37321" lon="5.48927">
        <ele>386.11</ele>
        <time>2021-04-27T13:03:15Z</time>
      </trkpt>
      <trkpt lat="45.37332" lon="5.48915">
        <ele>387.07</ele>
        <time>2021-04-27T13:03:25Z</time>
      </trkpt>
      <trkpt lat="45.37348" lon="5.48907">
        <ele>388.51</ele>
        <time>2021-04-27T13:03:35Z</time>
      </trkpt>
      <trkpt lat="45.37363" lon="5.48903">
        <ele>390.43</ele>
        <time>2021-04-27T13:03:45Z</time>
      </trkpt>
      <trkpt lat="45.37377" lon="5.48901">
        <ele>392.36</ele>
        <time>2021-04-27T13:03:55Z</time>
      </trkpt>
      <trkpt lat="45.37392" lon="5.48899">
        <ele>393.8</ele>
        <time>2021-04-27T13:04:05Z</time>
      </trkpt>
      <trkpt lat="45.37407" lon="5.48903">
        <ele>395.72</ele>
        <time>2021-04-27T13:04:15Z</time>
      </trkpt>
      <trkpt lat="45.3742" lon="5.48909">
        <ele>397.16</ele>
        <time>2021-04-27T13:04:25Z</time>
      </trkpt>
      <trkpt lat="45.37434" lon="5.48914">
        <ele>399.08</ele>
        <time>2021-04-27T13:04:35Z</time>
      </trkpt>
      <trkpt lat="45.37449" lon="5.48916">
        <ele>399.57</ele>
        <time>2021-04-27T13:04:45Z</time>
      </trkpt>
      <trkpt lat="45.37473" lon="5.48924">
        <ele>399.08</ele>
        <time>2021-04-27T13:04:55Z</time>
      </trkpt>
      <trkpt lat="45.37498" lon="5.48928">
        <ele>399.08</ele>
        <time>2021-04-27T13:05:05Z</time>
      </trkpt>
      <trkpt lat="45.37526" lon="5.4893">
        <ele>399.57</ele>
        <time>2021-04-27T13:05:15Z</time>
      </trkpt>
      <trkpt lat="45.37555" lon="5.48938">
        <ele>400.53</ele>
        <time>2021-04-27T13:05:25Z</time>
      </trkpt>
      <trkpt lat="45.37582" lon="5.48939">
        <ele>401.01</ele>
        <time>2021-04-27T13:05:35Z</time>
      </trkpt>
      <trkpt lat="45.3761" lon="5.48943">
        <ele>401.49</ele>
        <time>2021-04-27T13:05:45Z</time>
      </trkpt>
      <trkpt lat="45.3764" lon="5.48949">
        <ele>401.97</ele>
        <time>2021-04-27T13:05:55Z</time>
      </trkpt>
      <trkpt lat="45.37669" lon="5.48958">
        <ele>401.97</ele>
        <time>2021-04-27T13:06:05Z</time>
      </trkpt>
      <trkpt lat="45.377" lon="5.48976">
        <ele>401.49</ele>
        <time>2021-04-27T13:06:15Z</time>
      </trkpt>
      <trkpt lat="45.37732" lon="5.48998">
        <ele>401.49</ele>
        <time>2021-04-27T13:06:25Z</time>
      </trkpt>
      <trkpt lat="45.37763" lon="5.49022">
        <ele>401.49</ele>
        <time>2021-04-27T13:06:35Z</time>
      </trkpt>
      <trkpt lat="45.37793" lon="5.49041">
        <ele>401.49</ele>
        <time>2021-04-27T13:06:45Z</time>
      </trkpt>
      <trkpt lat="45.37821" lon="5.49058">
        <ele>401.97</ele>
        <time>2021-04-27T13:06:55Z</time>
      </trkpt>
      <trkpt lat="45.3785" lon="5.49072">
        <ele>402.45</ele>
        <time>2021-04-27T13:07:05Z</time>
      </trkpt>
      <trkpt lat="45.37874" lon="5.49092">
        <ele>402.93</ele>
        <time>2021-04-27T13:07:15Z</time>
      </trkpt>
      <trkpt lat="45.37896" lon="5.49116">
        <ele>403.41</ele>
        <time>2021-04-27T13:07:25Z</time>
      </trkpt>
      <trkpt lat="45.37919" lon="5.49149">
        <ele>403.41</ele>
        <time>2021-04-27T13:07:35Z</time>
      </trkpt>
      <trkpt lat="45.37941" lon="5.49178">
        <ele>403.89</ele>
        <time>2021-04-27T13:07:45Z</time>
      </trkpt>
      <trkpt lat="45.37955" lon="5.49209">
        <ele>404.85</ele>
        <time>2021-04-27T13:07:55Z</time>
      </trkpt>
      <trkpt lat="45.37955" lon="5.49226">
        <ele>405.33</ele>
        <time>2021-04-27T13:08:05Z</time>
      </trkpt>
      <trkpt lat="45.37977" lon="5.49254">
        <ele>404.85</ele>
        <time>2021-04-27T13:08:15Z</time>
      </trkpt>
      <trkpt lat="45.38001" lon="5.49285">
        <ele>405.33</ele>
        <time>2021-04-27T13:08:25Z</time>
      </trkpt>
      <trkpt lat="45.38022" lon="5.49314">
        <ele>406.29</ele>
        <time>2021-04-27T13:08:35Z</time>
      </trkpt>
      <trkpt lat="45.38042" lon="5.49346">
        <ele>407.26</ele>
        <time>2021-04-27T13:08:45Z</time>
      </trkpt>
      <trkpt lat="45.38057" lon="5.49381">
        <ele>407.74</ele>
        <time>2021-04-27T13:08:55Z</time>
      </trkpt>
      <trkpt lat="45.3807" lon="5.49423">
        <ele>407.26</ele>
        <time>2021-04-27T13:09:05Z</time>
      </trkpt>
      <trkpt lat="45.38073" lon="5.49466">
        <ele>406.77</ele>
        <time>2021-04-27T13:09:15Z</time>
      </trkpt>
      <trkpt lat="45.38045" lon="5.49473">
        <ele>405.33</ele>
        <time>2021-04-27T13:09:25Z</time>
      </trkpt>
      <trkpt lat="45.38009" lon="5.49494">
        <ele>402.93</ele>
        <time>2021-04-27T13:09:35Z</time>
      </trkpt>
      <trkpt lat="45.37956" lon="5.49557">
        <ele>394.76</ele>
        <time>2021-04-27T13:09:45Z</time>
      </trkpt>
      <trkpt lat="45.37883" lon="5.49633">
        <ele>390.43</ele>
        <time>2021-04-27T13:09:55Z</time>
      </trkpt>
      <trkpt lat="45.3784" lon="5.49618">
        <ele>394.28</ele>
        <time>2021-04-27T13:10:05Z</time>
      </trkpt>
      <trkpt lat="45.37814" lon="5.49602">
        <ele>395.72</ele>
        <time>2021-04-27T13:10:15Z</time>
      </trkpt>
      <trkpt lat="45.378" lon="5.49607">
        <ele>396.68</ele>
        <time>2021-04-27T13:10:25Z</time>
      </trkpt>
      <trkpt lat="45.37811" lon="5.49625">
        <ele>397.16</ele>
        <time>2021-04-27T13:10:35Z</time>
      </trkpt>
      <trkpt lat="45.3782" lon="5.49642">
        <ele>398.6</ele>
        <time>2021-04-27T13:10:45Z</time>
      </trkpt>
      <trkpt lat="45.37828" lon="5.49661">
        <ele>399.08</ele>
        <time>2021-04-27T13:10:55Z</time>
      </trkpt>
      <trkpt lat="45.37842" lon="5.49682">
        <ele>400.05</ele>
        <time>2021-04-27T13:11:05Z</time>
      </trkpt>
      <trkpt lat="45.37857" lon="5.49703">
        <ele>401.01</ele>
        <time>2021-04-27T13:11:15Z</time>
      </trkpt>
      <trkpt lat="45.37861" lon="5.4973">
        <ele>401.97</ele>
        <time>2021-04-27T13:11:25Z</time>
      </trkpt>
      <trkpt lat="45.37861" lon="5.4976">
        <ele>403.41</ele>
        <time>2021-04-27T13:11:35Z</time>
      </trkpt>
      <trkpt lat="45.37862" lon="5.49787">
        <ele>404.85</ele>
        <time>2021-04-27T13:11:45Z</time>
      </trkpt>
      <trkpt lat="45.37866" lon="5.49818">
        <ele>406.29</ele>
        <time>2021-04-27T13:11:55Z</time>
      </trkpt>
      <trkpt lat="45.37869" lon="5.49852">
        <ele>406.77</ele>
        <time>2021-04-27T13:12:05Z</time>
      </trkpt>
      <trkpt lat="45.37859" lon="5.49868">
        <ele>407.26</ele>
        <time>2021-04-27T13:12:15Z</time>
      </trkpt>
      <trkpt lat="45.37841" lon="5.49876">
        <ele>408.7</ele>
        <time>2021-04-27T13:12:25Z</time>
      </trkpt>
      <trkpt lat="45.37822" lon="5.49869">
        <ele>410.62</ele>
        <time>2021-04-27T13:12:35Z</time>
      </trkpt>
      <trkpt lat="45.37812" lon="5.49855">
        <ele>412.54</ele>
        <time>2021-04-27T13:12:45Z</time>
      </trkpt>
      <trkpt lat="45.37803" lon="5.49841">
        <ele>413.98</ele>
        <time>2021-04-27T13:12:55Z</time>
      </trkpt>
      <trkpt lat="45.37793" lon="5.49824">
        <ele>414.95</ele>
        <time>2021-04-27T13:13:05Z</time>
      </trkpt>
      <trkpt lat="45.37783" lon="5.49809">
        <ele>416.39</ele>
        <time>2021-04-27T13:13:15Z</time>
      </trkpt>
      <trkpt lat="45.37774" lon="5.49795">
        <ele>417.83</ele>
        <time>2021-04-27T13:13:25Z</time>
      </trkpt>
      <trkpt lat="45.37765" lon="5.49781">
        <ele>419.27</ele>
        <time>2021-04-27T13:13:35Z</time>
      </trkpt>
      <trkpt lat="45.37753" lon="5.49764">
        <ele>420.71</ele>
        <time>2021-04-27T13:13:45Z</time>
      </trkpt>
      <trkpt lat="45.37744" lon="5.4975">
        <ele>422.16</ele>
        <time>2021-04-27T13:13:55Z</time>
      </trkpt>
      <trkpt lat="45.37734" lon="5.49756">
        <ele>424.08</ele>
        <time>2021-04-27T13:14:05Z</time>
      </trkpt>
      <trkpt lat="45.37729" lon="5.49776">
        <ele>425.04</ele>
        <time>2021-04-27T13:14:15Z</time>
      </trkpt>
      <trkpt lat="45.37723" lon="5.4979">
        <ele>425.52</ele>
        <time>2021-04-27T13:14:25Z</time>
      </trkpt>
      <trkpt lat="45.37723" lon="5.4979">
        <ele>425.52</ele>
        <time>2021-04-27T13:14:35Z</time>
      </trkpt>
      <trkpt lat="45.37723" lon="5.49792">
        <ele>426</ele>
        <time>2021-04-27T13:14:45Z</time>
      </trkpt>
      <trkpt lat="45.37721" lon="5.49803">
        <ele>426</ele>
        <time>2021-04-27T13:14:55Z</time>
      </trkpt>
      <trkpt lat="45.37716" lon="5.49829">
        <ele>426</ele>
        <time>2021-04-27T13:15:05Z</time>
      </trkpt>
      <trkpt lat="45.37713" lon="5.49855">
        <ele>426.48</ele>
        <time>2021-04-27T13:15:15Z</time>
      </trkpt>
      <trkpt lat="45.37712" lon="5.49879">
        <ele>427.44</ele>
        <time>2021-04-27T13:15:25Z</time>
      </trkpt>
      <trkpt lat="45.37714" lon="5.49905">
        <ele>427.92</ele>
        <time>2021-04-27T13:15:35Z</time>
      </trkpt>
      <trkpt lat="45.37714" lon="5.4993">
        <ele>428.89</ele>
        <time>2021-04-27T13:15:45Z</time>
      </trkpt>
      <trkpt lat="45.37716" lon="5.49954">
        <ele>430.33</ele>
        <time>2021-04-27T13:15:55Z</time>
      </trkpt>
      <trkpt lat="45.37717" lon="5.49976">
        <ele>431.29</ele>
        <time>2021-04-27T13:16:05Z</time>
      </trkpt>
      <trkpt lat="45.37716" lon="5.49999">
        <ele>433.21</ele>
        <time>2021-04-27T13:16:15Z</time>
      </trkpt>
      <trkpt lat="45.37715" lon="5.50022">
        <ele>434.65</ele>
        <time>2021-04-27T13:16:25Z</time>
      </trkpt>
      <trkpt lat="45.37718" lon="5.50041">
        <ele>435.61</ele>
        <time>2021-04-27T13:16:35Z</time>
      </trkpt>
      <trkpt lat="45.37724" lon="5.50065">
        <ele>436.1</ele>
        <time>2021-04-27T13:16:45Z</time>
      </trkpt>
      <trkpt lat="45.37732" lon="5.50085">
        <ele>437.06</ele>
        <time>2021-04-27T13:16:55Z</time>
      </trkpt>
      <trkpt lat="45.37741" lon="5.50103">
        <ele>438.5</ele>
        <time>2021-04-27T13:17:05Z</time>
      </trkpt>
      <trkpt lat="45.37749" lon="5.50125">
        <ele>439.46</ele>
        <time>2021-04-27T13:17:15Z</time>
      </trkpt>
      <trkpt lat="45.37753" lon="5.50147">
        <ele>440.9</ele>
        <time>2021-04-27T13:17:25Z</time>
      </trkpt>
      <trkpt lat="45.37755" lon="5.50167">
        <ele>442.34</ele>
        <time>2021-04-27T13:17:35Z</time>
      </trkpt>
      <trkpt lat="45.37756" lon="5.50188">
        <ele>443.79</ele>
        <time>2021-04-27T13:17:45Z</time>
      </trkpt>
      <trkpt lat="45.37752" lon="5.50209">
        <ele>444.75</ele>
        <time>2021-04-27T13:17:55Z</time>
      </trkpt>
      <trkpt lat="45.37752" lon="5.50232">
        <ele>445.71</ele>
        <time>2021-04-27T13:18:05Z</time>
      </trkpt>
      <trkpt lat="45.37756" lon="5.50254">
        <ele>446.67</ele>
        <time>2021-04-27T13:18:15Z</time>
      </trkpt>
      <trkpt lat="45.37758" lon="5.50276">
        <ele>448.11</ele>
        <time>2021-04-27T13:18:25Z</time>
      </trkpt>
      <trkpt lat="45.37764" lon="5.50297">
        <ele>449.07</ele>
        <time>2021-04-27T13:18:35Z</time>
      </trkpt>
      <trkpt lat="45.37768" lon="5.50321">
        <ele>450.03</ele>
        <time>2021-04-27T13:18:45Z</time>
      </trkpt>
      <trkpt lat="45.37771" lon="5.50347">
        <ele>451</ele>
        <time>2021-04-27T13:18:55Z</time>
      </trkpt>
      <trkpt lat="45.37768" lon="5.50371">
        <ele>451.96</ele>
        <time>2021-04-27T13:19:05Z</time>
      </trkpt>
      <trkpt lat="45.37763" lon="5.50397">
        <ele>452.92</ele>
        <time>2021-04-27T13:19:15Z</time>
      </trkpt>
      <trkpt lat="45.3776" lon="5.50425">
        <ele>454.36</ele>
        <time>2021-04-27T13:19:25Z</time>
      </trkpt>
      <trkpt lat="45.3776" lon="5.5045">
        <ele>455.8</ele>
        <time>2021-04-27T13:19:35Z</time>
      </trkpt>
      <trkpt lat="45.37759" lon="5.50474">
        <ele>456.76</ele>
        <time>2021-04-27T13:19:45Z</time>
      </trkpt>
      <trkpt lat="45.37761" lon="5.50498">
        <ele>457.72</ele>
        <time>2021-04-27T13:19:55Z</time>
      </trkpt>
      <trkpt lat="45.37768" lon="5.50517">
        <ele>458.21</ele>
        <time>2021-04-27T13:20:05Z</time>
      </trkpt>
      <trkpt lat="45.37769" lon="5.50534">
        <ele>459.17</ele>
        <time>2021-04-27T13:20:15Z</time>
      </trkpt>
      <trkpt lat="45.37765" lon="5.50537">
        <ele>459.65</ele>
        <time>2021-04-27T13:20:25Z</time>
      </trkpt>
      <trkpt lat="45.37765" lon="5.50538">
        <ele>459.65</ele>
        <time>2021-04-27T13:20:35Z</time>
      </trkpt>
      <trkpt lat="45.37759" lon="5.50546">
        <ele>461.09</ele>
        <time>2021-04-27T13:20:45Z</time>
      </trkpt>
      <trkpt lat="45.37753" lon="5.50551">
        <ele>461.09</ele>
        <time>2021-04-27T13:20:55Z</time>
      </trkpt>
      <trkpt lat="45.37737" lon="5.50567">
        <ele>462.05</ele>
        <time>2021-04-27T13:21:05Z</time>
      </trkpt>
      <trkpt lat="45.37721" lon="5.5057">
        <ele>462.53</ele>
        <time>2021-04-27T13:21:15Z</time>
      </trkpt>
      <trkpt lat="45.37717" lon="5.50536">
        <ele>462.53</ele>
        <time>2021-04-27T13:21:25Z</time>
      </trkpt>
      <trkpt lat="45.37712" lon="5.505">
        <ele>461.57</ele>
        <time>2021-04-27T13:21:35Z</time>
      </trkpt>
      <trkpt lat="45.37708" lon="5.50456">
        <ele>461.57</ele>
        <time>2021-04-27T13:21:45Z</time>
      </trkpt>
      <trkpt lat="45.37701" lon="5.50413">
        <ele>462.05</ele>
        <time>2021-04-27T13:21:55Z</time>
      </trkpt>
      <trkpt lat="45.37692" lon="5.50381">
        <ele>463.01</ele>
        <time>2021-04-27T13:22:05Z</time>
      </trkpt>
      <trkpt lat="45.37689" lon="5.50347">
        <ele>463.01</ele>
        <time>2021-04-27T13:22:15Z</time>
      </trkpt>
      <trkpt lat="45.37679" lon="5.50306">
        <ele>463.49</ele>
        <time>2021-04-27T13:22:25Z</time>
      </trkpt>
      <trkpt lat="45.3766" lon="5.50266">
        <ele>462.53</ele>
        <time>2021-04-27T13:22:35Z</time>
      </trkpt>
      <trkpt lat="45.37647" lon="5.50219">
        <ele>462.05</ele>
        <time>2021-04-27T13:22:45Z</time>
      </trkpt>
      <trkpt lat="45.37638" lon="5.50182">
        <ele>461.57</ele>
        <time>2021-04-27T13:22:55Z</time>
      </trkpt>
      <trkpt lat="45.37635" lon="5.5018">
        <ele>461.57</ele>
        <time>2021-04-27T13:23:05Z</time>
      </trkpt>
      <trkpt lat="45.37635" lon="5.5018">
        <ele>462.05</ele>
        <time>2021-04-27T13:23:15Z</time>
      </trkpt>
      <trkpt lat="45.37635" lon="5.5018">
        <ele>461.57</ele>
        <time>2021-04-27T13:23:25Z</time>
      </trkpt>
      <trkpt lat="45.37635" lon="5.5018">
        <ele>461.57</ele>
        <time>2021-04-27T13:23:35Z</time>
      </trkpt>
      <trkpt lat="45.37634" lon="5.50179">
        <ele>461.57</ele>
        <time>2021-04-27T13:23:45Z</time>
      </trkpt>
      <trkpt lat="45.37616" lon="5.50186">
        <ele>461.57</ele>
        <time>2021-04-27T13:23:55Z</time>
      </trkpt>
      <trkpt lat="45.37594" lon="5.50195">
        <ele>462.05</ele>
        <time>2021-04-27T13:24:05Z</time>
      </trkpt>
      <trkpt lat="45.37569" lon="5.50206">
        <ele>462.05</ele>
        <time>2021-04-27T13:24:15Z</time>
      </trkpt>
      <trkpt lat="45.37547" lon="5.50202">
        <ele>463.01</ele>
        <time>2021-04-27T13:24:25Z</time>
      </trkpt>
      <trkpt lat="45.37531" lon="5.50188">
        <ele>463.49</ele>
        <time>2021-04-27T13:24:35Z</time>
      </trkpt>
      <trkpt lat="45.37515" lon="5.50183">
        <ele>463.97</ele>
        <time>2021-04-27T13:24:45Z</time>
      </trkpt>
      <trkpt lat="45.375" lon="5.5018">
        <ele>464.93</ele>
        <time>2021-04-27T13:24:55Z</time>
      </trkpt>
      <trkpt lat="45.3748" lon="5.50179">
        <ele>466.38</ele>
        <time>2021-04-27T13:25:05Z</time>
      </trkpt>
      <trkpt lat="45.37461" lon="5.50178">
        <ele>467.82</ele>
        <time>2021-04-27T13:25:15Z</time>
      </trkpt>
      <trkpt lat="45.37446" lon="5.50177">
        <ele>469.74</ele>
        <time>2021-04-27T13:25:25Z</time>
      </trkpt>
      <trkpt lat="45.37432" lon="5.50175">
        <ele>471.66</ele>
        <time>2021-04-27T13:25:35Z</time>
      </trkpt>
      <trkpt lat="45.37417" lon="5.50176">
        <ele>473.59</ele>
        <time>2021-04-27T13:25:45Z</time>
      </trkpt>
      <trkpt lat="45.37401" lon="5.50174">
        <ele>475.03</ele>
        <time>2021-04-27T13:25:55Z</time>
      </trkpt>
      <trkpt lat="45.3739" lon="5.50166">
        <ele>475.03</ele>
        <time>2021-04-27T13:26:05Z</time>
      </trkpt>
      <trkpt lat="45.37374" lon="5.50153">
        <ele>475.03</ele>
        <time>2021-04-27T13:26:15Z</time>
      </trkpt>
      <trkpt lat="45.37341" lon="5.50131">
        <ele>472.14</ele>
        <time>2021-04-27T13:26:25Z</time>
      </trkpt>
      <trkpt lat="45.37312" lon="5.50104">
        <ele>467.34</ele>
        <time>2021-04-27T13:26:35Z</time>
      </trkpt>
      <trkpt lat="45.37271" lon="5.50111">
        <ele>457.24</ele>
        <time>2021-04-27T13:26:45Z</time>
      </trkpt>
      <trkpt lat="45.37226" lon="5.50165">
        <ele>446.67</ele>
        <time>2021-04-27T13:26:55Z</time>
      </trkpt>
      <trkpt lat="45.37209" lon="5.50221">
        <ele>445.71</ele>
        <time>2021-04-27T13:27:05Z</time>
      </trkpt>
      <trkpt lat="45.37223" lon="5.50249">
        <ele>446.19</ele>
        <time>2021-04-27T13:27:15Z</time>
      </trkpt>
      <trkpt lat="45.37243" lon="5.50269">
        <ele>447.63</ele>
        <time>2021-04-27T13:27:25Z</time>
      </trkpt>
      <trkpt lat="45.37259" lon="5.50279">
        <ele>448.59</ele>
        <time>2021-04-27T13:27:35Z</time>
      </trkpt>
      <trkpt lat="45.37278" lon="5.50293">
        <ele>448.59</ele>
        <time>2021-04-27T13:27:45Z</time>
      </trkpt>
      <trkpt lat="45.37302" lon="5.50311">
        <ele>448.59</ele>
        <time>2021-04-27T13:27:55Z</time>
      </trkpt>
      <trkpt lat="45.37333" lon="5.50335">
        <ele>449.07</ele>
        <time>2021-04-27T13:28:05Z</time>
      </trkpt>
      <trkpt lat="45.37358" lon="5.50355">
        <ele>449.55</ele>
        <time>2021-04-27T13:28:15Z</time>
      </trkpt>
      <trkpt lat="45.3738" lon="5.50383">
        <ele>450.52</ele>
        <time>2021-04-27T13:28:25Z</time>
      </trkpt>
      <trkpt lat="45.37396" lon="5.50412">
        <ele>451.48</ele>
        <time>2021-04-27T13:28:35Z</time>
      </trkpt>
      <trkpt lat="45.37412" lon="5.50449">
        <ele>452.44</ele>
        <time>2021-04-27T13:28:45Z</time>
      </trkpt>
      <trkpt lat="45.37415" lon="5.50485">
        <ele>452.92</ele>
        <time>2021-04-27T13:28:55Z</time>
      </trkpt>
      <trkpt lat="45.37421" lon="5.50532">
        <ele>451.96</ele>
        <time>2021-04-27T13:29:05Z</time>
      </trkpt>
      <trkpt lat="45.3743" lon="5.50568">
        <ele>453.4</ele>
        <time>2021-04-27T13:29:15Z</time>
      </trkpt>
      <trkpt lat="45.37442" lon="5.50601">
        <ele>453.88</ele>
        <time>2021-04-27T13:29:25Z</time>
      </trkpt>
      <trkpt lat="45.37455" lon="5.50632">
        <ele>455.32</ele>
        <time>2021-04-27T13:29:35Z</time>
      </trkpt>
      <trkpt lat="45.37472" lon="5.50656">
        <ele>456.76</ele>
        <time>2021-04-27T13:29:45Z</time>
      </trkpt>
      <trkpt lat="45.37489" lon="5.5068">
        <ele>457.72</ele>
        <time>2021-04-27T13:29:55Z</time>
      </trkpt>
      <trkpt lat="45.37506" lon="5.50707">
        <ele>458.69</ele>
        <time>2021-04-27T13:30:05Z</time>
      </trkpt>
      <trkpt lat="45.37525" lon="5.50732">
        <ele>456.76</ele>
        <time>2021-04-27T13:30:15Z</time>
      </trkpt>
      <trkpt lat="45.3757" lon="5.50722">
        <ele>454.36</ele>
        <time>2021-04-27T13:30:25Z</time>
      </trkpt>
      <trkpt lat="45.37603" lon="5.5075">
        <ele>455.32</ele>
        <time>2021-04-27T13:30:35Z</time>
      </trkpt>
      <trkpt lat="45.37624" lon="5.50772">
        <ele>457.72</ele>
        <time>2021-04-27T13:30:45Z</time>
      </trkpt>
      <trkpt lat="45.37637" lon="5.50782">
        <ele>459.65</ele>
        <time>2021-04-27T13:30:55Z</time>
      </trkpt>
      <trkpt lat="45.37652" lon="5.5079">
        <ele>461.57</ele>
        <time>2021-04-27T13:31:05Z</time>
      </trkpt>
      <trkpt lat="45.37664" lon="5.50801">
        <ele>464.45</ele>
        <time>2021-04-27T13:31:15Z</time>
      </trkpt>
      <trkpt lat="45.37677" lon="5.50817">
        <ele>465.42</ele>
        <time>2021-04-27T13:31:25Z</time>
      </trkpt>
      <trkpt lat="45.37692" lon="5.50842">
        <ele>465.42</ele>
        <time>2021-04-27T13:31:35Z</time>
      </trkpt>
      <trkpt lat="45.37717" lon="5.50861">
        <ele>464.45</ele>
        <time>2021-04-27T13:31:45Z</time>
      </trkpt>
      <trkpt lat="45.3775" lon="5.50884">
        <ele>464.45</ele>
        <time>2021-04-27T13:31:55Z</time>
      </trkpt>
      <trkpt lat="45.37778" lon="5.50892">
        <ele>464.93</ele>
        <time>2021-04-27T13:32:05Z</time>
      </trkpt>
      <trkpt lat="45.37798" lon="5.50897">
        <ele>464.93</ele>
        <time>2021-04-27T13:32:15Z</time>
      </trkpt>
      <trkpt lat="45.37799" lon="5.50898">
        <ele>464.93</ele>
        <time>2021-04-27T13:32:25Z</time>
      </trkpt>
      <trkpt lat="45.37799" lon="5.50897">
        <ele>464.93</ele>
        <time>2021-04-27T13:32:35Z</time>
      </trkpt>
      <trkpt lat="45.378" lon="5.50898">
        <ele>464.93</ele>
        <time>2021-04-27T13:32:45Z</time>
      </trkpt>
      <trkpt lat="45.37801" lon="5.50898">
        <ele>464.93</ele>
        <time>2021-04-27T13:32:55Z</time>
      </trkpt>
      <trkpt lat="45.37802" lon="5.50898">
        <ele>464.93</ele>
        <time>2021-04-27T13:33:05Z</time>
      </trkpt>
      <trkpt lat="45.37801" lon="5.50898">
        <ele>464.93</ele>
        <time>2021-04-27T13:33:15Z</time>
      </trkpt>
      <trkpt lat="45.37801" lon="5.50898">
        <ele>464.93</ele>
        <time>2021-04-27T13:33:25Z</time>
      </trkpt>
      <trkpt lat="45.37801" lon="5.50898">
        <ele>464.93</ele>
        <time>2021-04-27T13:33:35Z</time>
      </trkpt>
      <trkpt lat="45.37802" lon="5.50898">
        <ele>464.93</ele>
        <time>2021-04-27T13:33:45Z</time>
      </trkpt>
      <trkpt lat="45.37805" lon="5.50921">
        <ele>464.93</ele>
        <time>2021-04-27T13:33:55Z</time>
      </trkpt>
      <trkpt lat="45.37804" lon="5.50952">
        <ele>465.9</ele>
        <time>2021-04-27T13:34:05Z</time>
      </trkpt>
      <trkpt lat="45.37803" lon="5.50989">
        <ele>466.38</ele>
        <time>2021-04-27T13:34:15Z</time>
      </trkpt>
      <trkpt lat="45.37802" lon="5.51028">
        <ele>467.34</ele>
        <time>2021-04-27T13:34:25Z</time>
      </trkpt>
      <trkpt lat="45.37801" lon="5.51066">
        <ele>467.82</ele>
        <time>2021-04-27T13:34:35Z</time>
      </trkpt>
      <trkpt lat="45.37802" lon="5.51103">
        <ele>468.78</ele>
        <time>2021-04-27T13:34:45Z</time>
      </trkpt>
      <trkpt lat="45.37809" lon="5.51148">
        <ele>468.78</ele>
        <time>2021-04-27T13:34:55Z</time>
      </trkpt>
      <trkpt lat="45.37826" lon="5.51207">
        <ele>467.34</ele>
        <time>2021-04-27T13:35:05Z</time>
      </trkpt>
      <trkpt lat="45.37864" lon="5.51258">
        <ele>467.82</ele>
        <time>2021-04-27T13:35:15Z</time>
      </trkpt>
      <trkpt lat="45.37899" lon="5.51301">
        <ele>468.3</ele>
        <time>2021-04-27T13:35:25Z</time>
      </trkpt>
      <trkpt lat="45.37933" lon="5.5134">
        <ele>468.3</ele>
        <time>2021-04-27T13:35:35Z</time>
      </trkpt>
      <trkpt lat="45.37976" lon="5.51373">
        <ele>467.82</ele>
        <time>2021-04-27T13:35:45Z</time>
      </trkpt>
      <trkpt lat="45.3802" lon="5.51412">
        <ele>467.34</ele>
        <time>2021-04-27T13:35:55Z</time>
      </trkpt>
      <trkpt lat="45.38056" lon="5.51464">
        <ele>467.34</ele>
        <time>2021-04-27T13:36:05Z</time>
      </trkpt>
      <trkpt lat="45.38086" lon="5.51511">
        <ele>468.3</ele>
        <time>2021-04-27T13:36:15Z</time>
      </trkpt>
      <trkpt lat="45.38115" lon="5.51556">
        <ele>468.78</ele>
        <time>2021-04-27T13:36:25Z</time>
      </trkpt>
      <trkpt lat="45.38145" lon="5.51602">
        <ele>469.26</ele>
        <time>2021-04-27T13:36:35Z</time>
      </trkpt>
      <trkpt lat="45.38176" lon="5.51649">
        <ele>469.26</ele>
        <time>2021-04-27T13:36:45Z</time>
      </trkpt>
      <trkpt lat="45.38206" lon="5.51694">
        <ele>469.26</ele>
        <time>2021-04-27T13:36:55Z</time>
      </trkpt>
      <trkpt lat="45.38205" lon="5.51733">
        <ele>470.22</ele>
        <time>2021-04-27T13:37:05Z</time>
      </trkpt>
      <trkpt lat="45.38185" lon="5.51757">
        <ele>472.14</ele>
        <time>2021-04-27T13:37:15Z</time>
      </trkpt>
      <trkpt lat="45.38163" lon="5.51776">
        <ele>473.59</ele>
        <time>2021-04-27T13:37:25Z</time>
      </trkpt>
      <trkpt lat="45.38142" lon="5.51787">
        <ele>475.99</ele>
        <time>2021-04-27T13:37:35Z</time>
      </trkpt>
      <trkpt lat="45.38122" lon="5.51791">
        <ele>477.43</ele>
        <time>2021-04-27T13:37:45Z</time>
      </trkpt>
      <trkpt lat="45.38107" lon="5.51799">
        <ele>478.87</ele>
        <time>2021-04-27T13:37:55Z</time>
      </trkpt>
      <trkpt lat="45.3811" lon="5.51819">
        <ele>480.8</ele>
        <time>2021-04-27T13:38:05Z</time>
      </trkpt>
      <trkpt lat="45.38113" lon="5.51838">
        <ele>482.72</ele>
        <time>2021-04-27T13:38:15Z</time>
      </trkpt>
      <trkpt lat="45.38116" lon="5.51858">
        <ele>484.16</ele>
        <time>2021-04-27T13:38:25Z</time>
      </trkpt>
      <trkpt lat="45.38115" lon="5.51881">
        <ele>485.12</ele>
        <time>2021-04-27T13:38:35Z</time>
      </trkpt>
      <trkpt lat="45.38117" lon="5.51904">
        <ele>486.08</ele>
        <time>2021-04-27T13:38:45Z</time>
      </trkpt>
      <trkpt lat="45.38122" lon="5.51938">
        <ele>486.56</ele>
        <time>2021-04-27T13:38:55Z</time>
      </trkpt>
      <trkpt lat="45.38133" lon="5.51986">
        <ele>485.12</ele>
        <time>2021-04-27T13:39:05Z</time>
      </trkpt>
      <trkpt lat="45.38143" lon="5.52039">
        <ele>485.12</ele>
        <time>2021-04-27T13:39:15Z</time>
      </trkpt>
      <trkpt lat="45.38168" lon="5.52098">
        <ele>484.16</ele>
        <time>2021-04-27T13:39:25Z</time>
      </trkpt>
      <trkpt lat="45.38196" lon="5.52155">
        <ele>483.2</ele>
        <time>2021-04-27T13:39:35Z</time>
      </trkpt>
      <trkpt lat="45.38215" lon="5.52206">
        <ele>484.64</ele>
        <time>2021-04-27T13:39:45Z</time>
      </trkpt>
      <trkpt lat="45.38233" lon="5.52254">
        <ele>485.6</ele>
        <time>2021-04-27T13:39:55Z</time>
      </trkpt>
      <trkpt lat="45.38257" lon="5.52297">
        <ele>487.05</ele>
        <time>2021-04-27T13:40:05Z</time>
      </trkpt>
      <trkpt lat="45.3828" lon="5.52336">
        <ele>487.53</ele>
        <time>2021-04-27T13:40:15Z</time>
      </trkpt>
      <trkpt lat="45.38306" lon="5.52375">
        <ele>487.53</ele>
        <time>2021-04-27T13:40:25Z</time>
      </trkpt>
      <trkpt lat="45.38334" lon="5.52418">
        <ele>486.08</ele>
        <time>2021-04-27T13:40:35Z</time>
      </trkpt>
      <trkpt lat="45.38358" lon="5.52468">
        <ele>484.16</ele>
        <time>2021-04-27T13:40:45Z</time>
      </trkpt>
      <trkpt lat="45.3839" lon="5.52511">
        <ele>485.6</ele>
        <time>2021-04-27T13:40:55Z</time>
      </trkpt>
      <trkpt lat="45.38425" lon="5.52559">
        <ele>483.68</ele>
        <time>2021-04-27T13:41:05Z</time>
      </trkpt>
      <trkpt lat="45.38449" lon="5.52602">
        <ele>479.35</ele>
        <time>2021-04-27T13:41:15Z</time>
      </trkpt>
      <trkpt lat="45.38434" lon="5.52612">
        <ele>478.39</ele>
        <time>2021-04-27T13:41:25Z</time>
      </trkpt>
      <trkpt lat="45.3842" lon="5.52631">
        <ele>474.07</ele>
        <time>2021-04-27T13:41:35Z</time>
      </trkpt>
      <trkpt lat="45.38374" lon="5.52666">
        <ele>464.93</ele>
        <time>2021-04-27T13:41:45Z</time>
      </trkpt>
      <trkpt lat="45.38304" lon="5.52735">
        <ele>453.88</ele>
        <time>2021-04-27T13:41:55Z</time>
      </trkpt>
      <trkpt lat="45.38237" lon="5.52794">
        <ele>445.23</ele>
        <time>2021-04-27T13:42:05Z</time>
      </trkpt>
      <trkpt lat="45.38195" lon="5.52766">
        <ele>441.38</ele>
        <time>2021-04-27T13:42:15Z</time>
      </trkpt>
      <trkpt lat="45.38128" lon="5.52744">
        <ele>438.5</ele>
        <time>2021-04-27T13:42:25Z</time>
      </trkpt>
      <trkpt lat="45.38067" lon="5.52749">
        <ele>436.1</ele>
        <time>2021-04-27T13:42:35Z</time>
      </trkpt>
      <trkpt lat="45.38028" lon="5.5275">
        <ele>435.61</ele>
        <time>2021-04-27T13:42:45Z</time>
      </trkpt>
      <trkpt lat="45.38005" lon="5.52734">
        <ele>434.65</ele>
        <time>2021-04-27T13:42:55Z</time>
      </trkpt>
      <trkpt lat="45.37966" lon="5.52755">
        <ele>432.73</ele>
        <time>2021-04-27T13:43:05Z</time>
      </trkpt>
      <trkpt lat="45.37927" lon="5.52744">
        <ele>431.29</ele>
        <time>2021-04-27T13:43:15Z</time>
      </trkpt>
      <trkpt lat="45.37882" lon="5.52735">
        <ele>429.85</ele>
        <time>2021-04-27T13:43:25Z</time>
      </trkpt>
      <trkpt lat="45.37826" lon="5.52753">
        <ele>428.4</ele>
        <time>2021-04-27T13:43:35Z</time>
      </trkpt>
      <trkpt lat="45.37767" lon="5.52757">
        <ele>426.48</ele>
        <time>2021-04-27T13:43:45Z</time>
      </trkpt>
      <trkpt lat="45.37705" lon="5.52755">
        <ele>425.04</ele>
        <time>2021-04-27T13:43:55Z</time>
      </trkpt>
      <trkpt lat="45.37647" lon="5.52772">
        <ele>424.56</ele>
        <time>2021-04-27T13:44:05Z</time>
      </trkpt>
      <trkpt lat="45.37596" lon="5.52811">
        <ele>423.6</ele>
        <time>2021-04-27T13:44:15Z</time>
      </trkpt>
      <trkpt lat="45.37548" lon="5.52844">
        <ele>424.08</ele>
        <time>2021-04-27T13:44:25Z</time>
      </trkpt>
      <trkpt lat="45.37506" lon="5.52874">
        <ele>426.48</ele>
        <time>2021-04-27T13:44:35Z</time>
      </trkpt>
      <trkpt lat="45.37477" lon="5.52893">
        <ele>427.44</ele>
        <time>2021-04-27T13:44:45Z</time>
      </trkpt>
      <trkpt lat="45.37445" lon="5.52914">
        <ele>426.48</ele>
        <time>2021-04-27T13:44:55Z</time>
      </trkpt>
      <trkpt lat="45.37437" lon="5.52919">
        <ele>426.48</ele>
        <time>2021-04-27T13:45:05Z</time>
      </trkpt>
      <trkpt lat="45.37437" lon="5.5292">
        <ele>426.48</ele>
        <time>2021-04-27T13:45:15Z</time>
      </trkpt>
      <trkpt lat="45.37437" lon="5.5292">
        <ele>426</ele>
        <time>2021-04-27T13:45:25Z</time>
      </trkpt>
      <trkpt lat="45.37437" lon="5.5292">
        <ele>426.48</ele>
        <time>2021-04-27T13:45:35Z</time>
      </trkpt>
      <trkpt lat="45.37426" lon="5.52931">
        <ele>426</ele>
        <time>2021-04-27T13:45:45Z</time>
      </trkpt>
      <trkpt lat="45.37402" lon="5.52961">
        <ele>425.04</ele>
        <time>2021-04-27T13:45:55Z</time>
      </trkpt>
      <trkpt lat="45.37373" lon="5.52992">
        <ele>425.04</ele>
        <time>2021-04-27T13:46:05Z</time>
      </trkpt>
      <trkpt lat="45.37378" lon="5.53026">
        <ele>425.04</ele>
        <time>2021-04-27T13:46:15Z</time>
      </trkpt>
      <trkpt lat="45.37404" lon="5.53064">
        <ele>424.08</ele>
        <time>2021-04-27T13:46:25Z</time>
      </trkpt>
      <trkpt lat="45.37431" lon="5.53117">
        <ele>422.64</ele>
        <time>2021-04-27T13:46:35Z</time>
      </trkpt>
      <trkpt lat="45.3747" lon="5.53179">
        <ele>419.75</ele>
        <time>2021-04-27T13:46:45Z</time>
      </trkpt>
      <trkpt lat="45.37511" lon="5.53251">
        <ele>416.87</ele>
        <time>2021-04-27T13:46:55Z</time>
      </trkpt>
      <trkpt lat="45.37535" lon="5.53307">
        <ele>411.58</ele>
        <time>2021-04-27T13:47:05Z</time>
      </trkpt>
      <trkpt lat="45.37566" lon="5.53373">
        <ele>401.01</ele>
        <time>2021-04-27T13:47:15Z</time>
      </trkpt>
      <trkpt lat="45.37581" lon="5.53481">
        <ele>392.84</ele>
        <time>2021-04-27T13:47:25Z</time>
      </trkpt>
      <trkpt lat="45.37587" lon="5.53579">
        <ele>392.84</ele>
        <time>2021-04-27T13:47:35Z</time>
      </trkpt>
      <trkpt lat="45.37613" lon="5.53618">
        <ele>395.24</ele>
        <time>2021-04-27T13:47:45Z</time>
      </trkpt>
      <trkpt lat="45.37629" lon="5.53647">
        <ele>397.16</ele>
        <time>2021-04-27T13:47:55Z</time>
      </trkpt>
      <trkpt lat="45.37639" lon="5.53688">
        <ele>398.12</ele>
        <time>2021-04-27T13:48:05Z</time>
      </trkpt>
      <trkpt lat="45.37645" lon="5.53725">
        <ele>399.57</ele>
        <time>2021-04-27T13:48:15Z</time>
      </trkpt>
      <trkpt lat="45.37655" lon="5.53758">
        <ele>401.01</ele>
        <time>2021-04-27T13:48:25Z</time>
      </trkpt>
      <trkpt lat="45.37652" lon="5.53769">
        <ele>403.41</ele>
        <time>2021-04-27T13:48:35Z</time>
      </trkpt>
      <trkpt lat="45.37632" lon="5.53759">
        <ele>403.89</ele>
        <time>2021-04-27T13:48:45Z</time>
      </trkpt>
      <trkpt lat="45.37615" lon="5.53745">
        <ele>404.85</ele>
        <time>2021-04-27T13:48:55Z</time>
      </trkpt>
      <trkpt lat="45.37593" lon="5.53729">
        <ele>405.33</ele>
        <time>2021-04-27T13:49:05Z</time>
      </trkpt>
      <trkpt lat="45.37558" lon="5.53712">
        <ele>402.93</ele>
        <time>2021-04-27T13:49:15Z</time>
      </trkpt>
      <trkpt lat="45.37514" lon="5.53704">
        <ele>402.93</ele>
        <time>2021-04-27T13:49:25Z</time>
      </trkpt>
      <trkpt lat="45.37469" lon="5.53709">
        <ele>401.01</ele>
        <time>2021-04-27T13:49:35Z</time>
      </trkpt>
      <trkpt lat="45.37412" lon="5.53763">
        <ele>394.28</ele>
        <time>2021-04-27T13:49:45Z</time>
      </trkpt>
      <trkpt lat="45.3735" lon="5.53772">
        <ele>395.24</ele>
        <time>2021-04-27T13:49:55Z</time>
      </trkpt>
      <trkpt lat="45.37306" lon="5.53774">
        <ele>398.12</ele>
        <time>2021-04-27T13:50:05Z</time>
      </trkpt>
      <trkpt lat="45.37283" lon="5.53785">
        <ele>400.53</ele>
        <time>2021-04-27T13:50:15Z</time>
      </trkpt>
      <trkpt lat="45.37291" lon="5.53821">
        <ele>400.53</ele>
        <time>2021-04-27T13:50:25Z</time>
      </trkpt>
      <trkpt lat="45.37302" lon="5.53865">
        <ele>400.53</ele>
        <time>2021-04-27T13:50:35Z</time>
      </trkpt>
      <trkpt lat="45.37314" lon="5.53909">
        <ele>401.01</ele>
        <time>2021-04-27T13:50:45Z</time>
      </trkpt>
      <trkpt lat="45.37326" lon="5.53956">
        <ele>401.01</ele>
        <time>2021-04-27T13:50:55Z</time>
      </trkpt>
      <trkpt lat="45.37339" lon="5.54005">
        <ele>401.01</ele>
        <time>2021-04-27T13:51:05Z</time>
      </trkpt>
      <trkpt lat="45.37346" lon="5.54059">
        <ele>401.01</ele>
        <time>2021-04-27T13:51:15Z</time>
      </trkpt>
      <trkpt lat="45.3735" lon="5.54114">
        <ele>401.01</ele>
        <time>2021-04-27T13:51:25Z</time>
      </trkpt>
      <trkpt lat="45.37358" lon="5.54175">
        <ele>400.05</ele>
        <time>2021-04-27T13:51:35Z</time>
      </trkpt>
      <trkpt lat="45.37351" lon="5.5421">
        <ele>401.01</ele>
        <time>2021-04-27T13:51:45Z</time>
      </trkpt>
      <trkpt lat="45.37323" lon="5.54232">
        <ele>401.97</ele>
        <time>2021-04-27T13:51:55Z</time>
      </trkpt>
      <trkpt lat="45.37297" lon="5.54252">
        <ele>402.93</ele>
        <time>2021-04-27T13:52:05Z</time>
      </trkpt>
      <trkpt lat="45.37274" lon="5.54266">
        <ele>403.41</ele>
        <time>2021-04-27T13:52:15Z</time>
      </trkpt>
      <trkpt lat="45.37257" lon="5.54295">
        <ele>403.89</ele>
        <time>2021-04-27T13:52:25Z</time>
      </trkpt>
      <trkpt lat="45.37245" lon="5.5433">
        <ele>404.37</ele>
        <time>2021-04-27T13:52:35Z</time>
      </trkpt>
      <trkpt lat="45.3723" lon="5.54364">
        <ele>405.33</ele>
        <time>2021-04-27T13:52:45Z</time>
      </trkpt>
      <trkpt lat="45.37217" lon="5.54403">
        <ele>405.33</ele>
        <time>2021-04-27T13:52:55Z</time>
      </trkpt>
      <trkpt lat="45.37202" lon="5.54442">
        <ele>405.33</ele>
        <time>2021-04-27T13:53:05Z</time>
      </trkpt>
      <trkpt lat="45.37188" lon="5.54486">
        <ele>405.33</ele>
        <time>2021-04-27T13:53:15Z</time>
      </trkpt>
      <trkpt lat="45.3718" lon="5.54533">
        <ele>405.33</ele>
        <time>2021-04-27T13:53:25Z</time>
      </trkpt>
      <trkpt lat="45.37166" lon="5.54571">
        <ele>405.33</ele>
        <time>2021-04-27T13:53:35Z</time>
      </trkpt>
      <trkpt lat="45.37158" lon="5.54601">
        <ele>405.33</ele>
        <time>2021-04-27T13:53:45Z</time>
      </trkpt>
      <trkpt lat="45.37149" lon="5.54634">
        <ele>405.33</ele>
        <time>2021-04-27T13:53:55Z</time>
      </trkpt>
      <trkpt lat="45.37143" lon="5.54676">
        <ele>405.33</ele>
        <time>2021-04-27T13:54:05Z</time>
      </trkpt>
      <trkpt lat="45.37136" lon="5.54732">
        <ele>404.37</ele>
        <time>2021-04-27T13:54:15Z</time>
      </trkpt>
      <trkpt lat="45.37143" lon="5.54794">
        <ele>402.93</ele>
        <time>2021-04-27T13:54:25Z</time>
      </trkpt>
      <trkpt lat="45.37157" lon="5.54854">
        <ele>401.97</ele>
        <time>2021-04-27T13:54:35Z</time>
      </trkpt>
      <trkpt lat="45.37168" lon="5.5492">
        <ele>401.01</ele>
        <time>2021-04-27T13:54:45Z</time>
      </trkpt>
      <trkpt lat="45.37178" lon="5.54974">
        <ele>401.01</ele>
        <time>2021-04-27T13:54:55Z</time>
      </trkpt>
      <trkpt lat="45.37191" lon="5.55028">
        <ele>401.97</ele>
        <time>2021-04-27T13:55:05Z</time>
      </trkpt>
      <trkpt lat="45.37202" lon="5.55081">
        <ele>402.93</ele>
        <time>2021-04-27T13:55:15Z</time>
      </trkpt>
      <trkpt lat="45.37227" lon="5.55133">
        <ele>402.45</ele>
        <time>2021-04-27T13:55:25Z</time>
      </trkpt>
      <trkpt lat="45.37238" lon="5.55195">
        <ele>402.45</ele>
        <time>2021-04-27T13:55:35Z</time>
      </trkpt>
      <trkpt lat="45.37247" lon="5.55255">
        <ele>403.41</ele>
        <time>2021-04-27T13:55:45Z</time>
      </trkpt>
      <trkpt lat="45.37256" lon="5.55311">
        <ele>404.85</ele>
        <time>2021-04-27T13:55:55Z</time>
      </trkpt>
      <trkpt lat="45.3727" lon="5.5536">
        <ele>405.33</ele>
        <time>2021-04-27T13:56:05Z</time>
      </trkpt>
      <trkpt lat="45.37284" lon="5.55408">
        <ele>406.29</ele>
        <time>2021-04-27T13:56:15Z</time>
      </trkpt>
      <trkpt lat="45.37291" lon="5.55465">
        <ele>406.29</ele>
        <time>2021-04-27T13:56:25Z</time>
      </trkpt>
      <trkpt lat="45.37291" lon="5.55524">
        <ele>405.33</ele>
        <time>2021-04-27T13:56:35Z</time>
      </trkpt>
      <trkpt lat="45.37271" lon="5.55525">
        <ele>404.37</ele>
        <time>2021-04-27T13:56:45Z</time>
      </trkpt>
      <trkpt lat="45.37228" lon="5.55503">
        <ele>402.45</ele>
        <time>2021-04-27T13:56:55Z</time>
      </trkpt>
      <trkpt lat="45.37189" lon="5.55481">
        <ele>398.6</ele>
        <time>2021-04-27T13:57:05Z</time>
      </trkpt>
      <trkpt lat="45.37155" lon="5.55468">
        <ele>390.43</ele>
        <time>2021-04-27T13:57:15Z</time>
      </trkpt>
      <trkpt lat="45.37139" lon="5.55488">
        <ele>384.66</ele>
        <time>2021-04-27T13:57:25Z</time>
      </trkpt>
      <trkpt lat="45.37141" lon="5.55543">
        <ele>384.18</ele>
        <time>2021-04-27T13:57:35Z</time>
      </trkpt>
      <trkpt lat="45.37136" lon="5.55548">
        <ele>384.66</ele>
        <time>2021-04-27T13:57:45Z</time>
      </trkpt>
      <trkpt lat="45.37126" lon="5.55549">
        <ele>385.15</ele>
        <time>2021-04-27T13:57:55Z</time>
      </trkpt>
      <trkpt lat="45.37104" lon="5.55549">
        <ele>385.63</ele>
        <time>2021-04-27T13:58:05Z</time>
      </trkpt>
      <trkpt lat="45.37068" lon="5.55552">
        <ele>383.7</ele>
        <time>2021-04-27T13:58:15Z</time>
      </trkpt>
      <trkpt lat="45.37018" lon="5.55554">
        <ele>381.78</ele>
        <time>2021-04-27T13:58:25Z</time>
      </trkpt>
      <trkpt lat="45.36972" lon="5.55555">
        <ele>380.82</ele>
        <time>2021-04-27T13:58:35Z</time>
      </trkpt>
      <trkpt lat="45.36934" lon="5.55558">
        <ele>379.86</ele>
        <time>2021-04-27T13:58:45Z</time>
      </trkpt>
      <trkpt lat="45.36897" lon="5.55546">
        <ele>377.45</ele>
        <time>2021-04-27T13:58:55Z</time>
      </trkpt>
      <trkpt lat="45.36895" lon="5.55514">
        <ele>376.01</ele>
        <time>2021-04-27T13:59:05Z</time>
      </trkpt>
      <trkpt lat="45.36898" lon="5.5547">
        <ele>376.01</ele>
        <time>2021-04-27T13:59:15Z</time>
      </trkpt>
      <trkpt lat="45.36896" lon="5.55438">
        <ele>376.01</ele>
        <time>2021-04-27T13:59:25Z</time>
      </trkpt>
      <trkpt lat="45.36894" lon="5.55435">
        <ele>376.01</ele>
        <time>2021-04-27T13:59:35Z</time>
      </trkpt>
      <trkpt lat="45.36894" lon="5.55435">
        <ele>376.01</ele>
        <time>2021-04-27T13:59:45Z</time>
      </trkpt>
      <trkpt lat="45.36894" lon="5.55434">
        <ele>376.01</ele>
        <time>2021-04-27T13:59:55Z</time>
      </trkpt>
      <trkpt lat="45.36892" lon="5.55432">
        <ele>376.01</ele>
        <time>2021-04-27T14:00:05Z</time>
      </trkpt>
      <trkpt lat="45.36892" lon="5.55433">
        <ele>376.01</ele>
        <time>2021-04-27T14:00:15Z</time>
      </trkpt>
      <trkpt lat="45.36893" lon="5.55432">
        <ele>376.49</ele>
        <time>2021-04-27T14:00:25Z</time>
      </trkpt>
      <trkpt lat="45.36892" lon="5.55432">
        <ele>376.49</ele>
        <time>2021-04-27T14:00:35Z</time>
      </trkpt>
      <trkpt lat="45.36892" lon="5.55432">
        <ele>376.49</ele>
        <time>2021-04-27T14:00:45Z</time>
      </trkpt>
      <trkpt lat="45.36892" lon="5.55432">
        <ele>376.01</ele>
        <time>2021-04-27T14:00:55Z</time>
      </trkpt>
      <trkpt lat="45.36892" lon="5.55433">
        <ele>376.01</ele>
        <time>2021-04-27T14:01:05Z</time>
      </trkpt>
      <trkpt lat="45.36892" lon="5.55432">
        <ele>376.49</ele>
        <time>2021-04-27T14:01:15Z</time>
      </trkpt>
      <trkpt lat="45.36892" lon="5.55417">
        <ele>376.01</ele>
        <time>2021-04-27T14:01:25Z</time>
      </trkpt>
      <trkpt lat="45.36891" lon="5.55393">
        <ele>376.49</ele>
        <time>2021-04-27T14:01:35Z</time>
      </trkpt>
      <trkpt lat="45.36902" lon="5.55369">
        <ele>376.97</ele>
        <time>2021-04-27T14:01:45Z</time>
      </trkpt>
      <trkpt lat="45.36917" lon="5.55348">
        <ele>377.94</ele>
        <time>2021-04-27T14:01:55Z</time>
      </trkpt>
      <trkpt lat="45.36926" lon="5.55314">
        <ele>377.94</ele>
        <time>2021-04-27T14:02:05Z</time>
      </trkpt>
      <trkpt lat="45.36929" lon="5.55276">
        <ele>378.9</ele>
        <time>2021-04-27T14:02:15Z</time>
      </trkpt>
      <trkpt lat="45.36931" lon="5.55242">
        <ele>380.34</ele>
        <time>2021-04-27T14:02:25Z</time>
      </trkpt>
      <trkpt lat="45.36919" lon="5.55224">
        <ele>380.34</ele>
        <time>2021-04-27T14:02:35Z</time>
      </trkpt>
      <trkpt lat="45.36866" lon="5.55248">
        <ele>376.01</ele>
        <time>2021-04-27T14:02:45Z</time>
      </trkpt>
      <trkpt lat="45.36797" lon="5.5529">
        <ele>373.13</ele>
        <time>2021-04-27T14:02:55Z</time>
      </trkpt>
      <trkpt lat="45.3673" lon="5.55303">
        <ele>370.73</ele>
        <time>2021-04-27T14:03:05Z</time>
      </trkpt>
      <trkpt lat="45.36664" lon="5.55299">
        <ele>369.76</ele>
        <time>2021-04-27T14:03:15Z</time>
      </trkpt>
      <trkpt lat="45.36626" lon="5.55305">
        <ele>369.76</ele>
        <time>2021-04-27T14:03:25Z</time>
      </trkpt>
      <trkpt lat="45.36588" lon="5.55311">
        <ele>369.76</ele>
        <time>2021-04-27T14:03:35Z</time>
      </trkpt>
      <trkpt lat="45.36546" lon="5.55312">
        <ele>369.76</ele>
        <time>2021-04-27T14:03:45Z</time>
      </trkpt>
      <trkpt lat="45.36502" lon="5.55318">
        <ele>370.24</ele>
        <time>2021-04-27T14:03:55Z</time>
      </trkpt>
      <trkpt lat="45.36459" lon="5.55327">
        <ele>370.24</ele>
        <time>2021-04-27T14:04:05Z</time>
      </trkpt>
      <trkpt lat="45.36408" lon="5.55335">
        <ele>368.8</ele>
        <time>2021-04-27T14:04:15Z</time>
      </trkpt>
      <trkpt lat="45.3636" lon="5.55337">
        <ele>366.88</ele>
        <time>2021-04-27T14:04:25Z</time>
      </trkpt>
      <trkpt lat="45.36344" lon="5.55271">
        <ele>366.4</ele>
        <time>2021-04-27T14:04:35Z</time>
      </trkpt>
      <trkpt lat="45.36306" lon="5.55234">
        <ele>365.44</ele>
        <time>2021-04-27T14:04:45Z</time>
      </trkpt>
      <trkpt lat="45.36274" lon="5.55188">
        <ele>365.44</ele>
        <time>2021-04-27T14:04:55Z</time>
      </trkpt>
      <trkpt lat="45.36239" lon="5.55146">
        <ele>365.92</ele>
        <time>2021-04-27T14:05:05Z</time>
      </trkpt>
      <trkpt lat="45.36201" lon="5.55103">
        <ele>364.96</ele>
        <time>2021-04-27T14:05:15Z</time>
      </trkpt>
      <trkpt lat="45.36172" lon="5.55062">
        <ele>365.92</ele>
        <time>2021-04-27T14:05:25Z</time>
      </trkpt>
      <trkpt lat="45.36137" lon="5.55024">
        <ele>364.96</ele>
        <time>2021-04-27T14:05:35Z</time>
      </trkpt>
      <trkpt lat="45.36115" lon="5.54996">
        <ele>363.04</ele>
        <time>2021-04-27T14:05:45Z</time>
      </trkpt>
      <trkpt lat="45.36068" lon="5.55008">
        <ele>361.11</ele>
        <time>2021-04-27T14:05:55Z</time>
      </trkpt>
      <trkpt lat="45.36038" lon="5.55037">
        <ele>361.59</ele>
        <time>2021-04-27T14:06:05Z</time>
      </trkpt>
      <trkpt lat="45.36045" lon="5.5507">
        <ele>364</ele>
        <time>2021-04-27T14:06:15Z</time>
      </trkpt>
      <trkpt lat="45.36062" lon="5.55096">
        <ele>364.48</ele>
        <time>2021-04-27T14:06:25Z</time>
      </trkpt>
      <trkpt lat="45.36066" lon="5.55131">
        <ele>364.96</ele>
        <time>2021-04-27T14:06:35Z</time>
      </trkpt>
      <trkpt lat="45.36044" lon="5.55146">
        <ele>365.44</ele>
        <time>2021-04-27T14:06:45Z</time>
      </trkpt>
      <trkpt lat="45.36026" lon="5.55163">
        <ele>365.44</ele>
        <time>2021-04-27T14:06:55Z</time>
      </trkpt>
      <trkpt lat="45.36024" lon="5.55166">
        <ele>365.92</ele>
        <time>2021-04-27T14:07:05Z</time>
      </trkpt>
      <trkpt lat="45.36024" lon="5.55166">
        <ele>365.92</ele>
        <time>2021-04-27T14:07:15Z</time>
      </trkpt>
      <trkpt lat="45.36023" lon="5.55167">
        <ele>365.92</ele>
        <time>2021-04-27T14:07:25Z</time>
      </trkpt>
      <trkpt lat="45.36022" lon="5.55167">
        <ele>365.92</ele>
        <time>2021-04-27T14:07:35Z</time>
      </trkpt>
      <trkpt lat="45.36023" lon="5.55167">
        <ele>365.44</ele>
        <time>2021-04-27T14:07:45Z</time>
      </trkpt>
    </trkseg>
  </trk>
</gpx>